<?xml version="1.0" encoding="UTF-8" standalone="no" ?>
<gpx xmlns="http://www.topografix.com/GPX/1/1" xmlns:xsi="http://www.w3.org/2001/XMLSchema-instance" xsi:schemaLocation="http://www.topografix.com/GPX/1/1 http://www.topografix.com/GPX/1/1/gpx.xsd" version="1.1" creator="VisuGPX - https://www.visugpx.com">
  <metadata>
    <name>Tête de la Cassille, Couloir Ouest</name>
    <desc><![CDATA[grp_trc:]]></desc>
  </metadata>
  <trk>
    <name><![CDATA[Cassille ouest]]></name>
    <cmt><![CDATA[09:40:51]]></cmt>
    <desc><![CDATA[comment ...]]></desc>
    <trkseg>
      <trkpt lat="45.01579" lon="6.46524">
        <ele>1709</ele>
        <time>2020-01-23T08:40:52Z</time>
      </trkpt>
      <trkpt lat="45.01579" lon="6.46524">
        <ele>1709</ele>
        <time>2020-01-23T08:40:53Z</time>
      </trkpt>
      <trkpt lat="45.01579" lon="6.46525">
        <ele>1706</ele>
        <time>2020-01-23T08:41:15Z</time>
      </trkpt>
      <trkpt lat="45.01581" lon="6.46525">
        <ele>1702</ele>
        <time>2020-01-23T08:41:58Z</time>
      </trkpt>
      <trkpt lat="45.01582" lon="6.46528">
        <ele>1702</ele>
        <time>2020-01-23T08:42:00Z</time>
      </trkpt>
      <trkpt lat="45.01581" lon="6.46531">
        <ele>1700</ele>
        <time>2020-01-23T08:42:02Z</time>
      </trkpt>
      <trkpt lat="45.0158" lon="6.46536">
        <ele>1700</ele>
        <time>2020-01-23T08:42:05Z</time>
      </trkpt>
      <trkpt lat="45.01581" lon="6.4654">
        <ele>1700</ele>
        <time>2020-01-23T08:42:06Z</time>
      </trkpt>
      <trkpt lat="45.01579" lon="6.46544">
        <ele>1700</ele>
        <time>2020-01-23T08:42:08Z</time>
      </trkpt>
      <trkpt lat="45.01577" lon="6.46545">
        <ele>1700</ele>
        <time>2020-01-23T08:42:09Z</time>
      </trkpt>
      <trkpt lat="45.01576" lon="6.46548">
        <ele>1700</ele>
        <time>2020-01-23T08:42:11Z</time>
      </trkpt>
      <trkpt lat="45.01577" lon="6.46548">
        <ele>1698</ele>
        <time>2020-01-23T08:42:40Z</time>
      </trkpt>
      <trkpt lat="45.01577" lon="6.46549">
        <ele>1699</ele>
        <time>2020-01-23T08:43:06Z</time>
      </trkpt>
      <trkpt lat="45.01574" lon="6.46548">
        <ele>1698</ele>
        <time>2020-01-23T08:43:08Z</time>
      </trkpt>
      <trkpt lat="45.01573" lon="6.46549">
        <ele>1699</ele>
        <time>2020-01-23T08:43:12Z</time>
      </trkpt>
      <trkpt lat="45.01571" lon="6.46552">
        <ele>1701</ele>
        <time>2020-01-23T08:43:15Z</time>
      </trkpt>
      <trkpt lat="45.01568" lon="6.46559">
        <ele>1701</ele>
        <time>2020-01-23T08:43:25Z</time>
      </trkpt>
      <trkpt lat="45.01566" lon="6.4656">
        <ele>1701</ele>
        <time>2020-01-23T08:43:28Z</time>
      </trkpt>
      <trkpt lat="45.01566" lon="6.46563">
        <ele>1701</ele>
        <time>2020-01-23T08:43:38Z</time>
      </trkpt>
      <trkpt lat="45.01567" lon="6.46564">
        <ele>1701</ele>
        <time>2020-01-23T08:43:40Z</time>
      </trkpt>
      <trkpt lat="45.01566" lon="6.46574">
        <ele>1704</ele>
        <time>2020-01-23T08:43:47Z</time>
      </trkpt>
      <trkpt lat="45.01568" lon="6.46581">
        <ele>1705</ele>
        <time>2020-01-23T08:43:56Z</time>
      </trkpt>
      <trkpt lat="45.01568" lon="6.46586">
        <ele>1706</ele>
        <time>2020-01-23T08:44:02Z</time>
      </trkpt>
      <trkpt lat="45.01568" lon="6.46593">
        <ele>1707</ele>
        <time>2020-01-23T08:44:09Z</time>
      </trkpt>
      <trkpt lat="45.01569" lon="6.46596">
        <ele>1711</ele>
        <time>2020-01-23T08:44:16Z</time>
      </trkpt>
      <trkpt lat="45.01571" lon="6.466">
        <ele>1715</ele>
        <time>2020-01-23T08:44:19Z</time>
      </trkpt>
      <trkpt lat="45.01572" lon="6.46603">
        <ele>1717</ele>
        <time>2020-01-23T08:44:22Z</time>
      </trkpt>
      <trkpt lat="45.01571" lon="6.46605">
        <ele>1717</ele>
        <time>2020-01-23T08:44:24Z</time>
      </trkpt>
      <trkpt lat="45.0157" lon="6.46607">
        <ele>1716</ele>
        <time>2020-01-23T08:44:26Z</time>
      </trkpt>
      <trkpt lat="45.0157" lon="6.4661">
        <ele>1716</ele>
        <time>2020-01-23T08:44:31Z</time>
      </trkpt>
      <trkpt lat="45.0157" lon="6.46612">
        <ele>1716</ele>
        <time>2020-01-23T08:44:33Z</time>
      </trkpt>
      <trkpt lat="45.01571" lon="6.4662">
        <ele>1716</ele>
        <time>2020-01-23T08:44:44Z</time>
      </trkpt>
      <trkpt lat="45.01571" lon="6.46622">
        <ele>1717</ele>
        <time>2020-01-23T08:44:46Z</time>
      </trkpt>
      <trkpt lat="45.01571" lon="6.4663">
        <ele>1717</ele>
        <time>2020-01-23T08:44:54Z</time>
      </trkpt>
      <trkpt lat="45.01572" lon="6.46638">
        <ele>1719</ele>
        <time>2020-01-23T08:45:02Z</time>
      </trkpt>
      <trkpt lat="45.01573" lon="6.4664">
        <ele>1719</ele>
        <time>2020-01-23T08:45:05Z</time>
      </trkpt>
      <trkpt lat="45.01574" lon="6.46644">
        <ele>1719</ele>
        <time>2020-01-23T08:45:10Z</time>
      </trkpt>
      <trkpt lat="45.01573" lon="6.46646">
        <ele>1719</ele>
        <time>2020-01-23T08:45:12Z</time>
      </trkpt>
      <trkpt lat="45.01575" lon="6.46649">
        <ele>1720</ele>
        <time>2020-01-23T08:45:14Z</time>
      </trkpt>
      <trkpt lat="45.01575" lon="6.46653">
        <ele>1722</ele>
        <time>2020-01-23T08:45:16Z</time>
      </trkpt>
      <trkpt lat="45.01573" lon="6.46656">
        <ele>1723</ele>
        <time>2020-01-23T08:45:19Z</time>
      </trkpt>
      <trkpt lat="45.01573" lon="6.46662">
        <ele>1725</ele>
        <time>2020-01-23T08:45:27Z</time>
      </trkpt>
      <trkpt lat="45.01577" lon="6.46661">
        <ele>1726</ele>
        <time>2020-01-23T08:45:32Z</time>
      </trkpt>
      <trkpt lat="45.01578" lon="6.46663">
        <ele>1727</ele>
        <time>2020-01-23T08:45:34Z</time>
      </trkpt>
      <trkpt lat="45.01581" lon="6.46662">
        <ele>1728</ele>
        <time>2020-01-23T08:45:39Z</time>
      </trkpt>
      <trkpt lat="45.01584" lon="6.46659">
        <ele>1728</ele>
        <time>2020-01-23T08:45:45Z</time>
      </trkpt>
      <trkpt lat="45.01587" lon="6.46659">
        <ele>1729</ele>
        <time>2020-01-23T08:45:48Z</time>
      </trkpt>
      <trkpt lat="45.01588" lon="6.46656">
        <ele>1729</ele>
        <time>2020-01-23T08:45:58Z</time>
      </trkpt>
      <trkpt lat="45.0159" lon="6.46654">
        <ele>1729</ele>
        <time>2020-01-23T08:46:02Z</time>
      </trkpt>
      <trkpt lat="45.01592" lon="6.46651">
        <ele>1730</ele>
        <time>2020-01-23T08:46:05Z</time>
      </trkpt>
      <trkpt lat="45.01594" lon="6.46653">
        <ele>1730</ele>
        <time>2020-01-23T08:46:10Z</time>
      </trkpt>
      <trkpt lat="45.01594" lon="6.46655">
        <ele>1730</ele>
        <time>2020-01-23T08:46:14Z</time>
      </trkpt>
      <trkpt lat="45.01594" lon="6.46657">
        <ele>1730</ele>
        <time>2020-01-23T08:46:17Z</time>
      </trkpt>
      <trkpt lat="45.01596" lon="6.46664">
        <ele>1731</ele>
        <time>2020-01-23T08:46:26Z</time>
      </trkpt>
      <trkpt lat="45.01596" lon="6.46667">
        <ele>1738</ele>
        <time>2020-01-23T08:46:30Z</time>
      </trkpt>
      <trkpt lat="45.01596" lon="6.46675">
        <ele>1739</ele>
        <time>2020-01-23T08:46:34Z</time>
      </trkpt>
      <trkpt lat="45.01598" lon="6.46678">
        <ele>1740</ele>
        <time>2020-01-23T08:46:44Z</time>
      </trkpt>
      <trkpt lat="45.01599" lon="6.46679">
        <ele>1740</ele>
        <time>2020-01-23T08:46:46Z</time>
      </trkpt>
      <trkpt lat="45.01601" lon="6.4668">
        <ele>1740</ele>
        <time>2020-01-23T08:46:50Z</time>
      </trkpt>
      <trkpt lat="45.01603" lon="6.46682">
        <ele>1740</ele>
        <time>2020-01-23T08:46:55Z</time>
      </trkpt>
      <trkpt lat="45.01605" lon="6.46686">
        <ele>1741</ele>
        <time>2020-01-23T08:46:57Z</time>
      </trkpt>
      <trkpt lat="45.01608" lon="6.4669">
        <ele>1741</ele>
        <time>2020-01-23T08:47:01Z</time>
      </trkpt>
      <trkpt lat="45.01607" lon="6.46692">
        <ele>1741</ele>
        <time>2020-01-23T08:47:03Z</time>
      </trkpt>
      <trkpt lat="45.01607" lon="6.46702">
        <ele>1745</ele>
        <time>2020-01-23T08:47:14Z</time>
      </trkpt>
      <trkpt lat="45.01603" lon="6.46703">
        <ele>1745</ele>
        <time>2020-01-23T08:47:19Z</time>
      </trkpt>
      <trkpt lat="45.01603" lon="6.46707">
        <ele>1746</ele>
        <time>2020-01-23T08:47:21Z</time>
      </trkpt>
      <trkpt lat="45.01603" lon="6.4671">
        <ele>1747</ele>
        <time>2020-01-23T08:47:25Z</time>
      </trkpt>
      <trkpt lat="45.01606" lon="6.46711">
        <ele>1747</ele>
        <time>2020-01-23T08:47:30Z</time>
      </trkpt>
      <trkpt lat="45.01605" lon="6.46716">
        <ele>1751</ele>
        <time>2020-01-23T08:47:37Z</time>
      </trkpt>
      <trkpt lat="45.01608" lon="6.46717">
        <ele>1750</ele>
        <time>2020-01-23T08:47:41Z</time>
      </trkpt>
      <trkpt lat="45.01608" lon="6.46723">
        <ele>1750</ele>
        <time>2020-01-23T08:47:44Z</time>
      </trkpt>
      <trkpt lat="45.0161" lon="6.46725">
        <ele>1750</ele>
        <time>2020-01-23T08:47:48Z</time>
      </trkpt>
      <trkpt lat="45.01612" lon="6.46728">
        <ele>1750</ele>
        <time>2020-01-23T08:47:52Z</time>
      </trkpt>
      <trkpt lat="45.01614" lon="6.4673">
        <ele>1751</ele>
        <time>2020-01-23T08:47:56Z</time>
      </trkpt>
      <trkpt lat="45.01615" lon="6.46732">
        <ele>1751</ele>
        <time>2020-01-23T08:48:00Z</time>
      </trkpt>
      <trkpt lat="45.01615" lon="6.46735">
        <ele>1752</ele>
        <time>2020-01-23T08:48:05Z</time>
      </trkpt>
      <trkpt lat="45.01613" lon="6.46736">
        <ele>1752</ele>
        <time>2020-01-23T08:48:07Z</time>
      </trkpt>
      <trkpt lat="45.01615" lon="6.46741">
        <ele>1754</ele>
        <time>2020-01-23T08:48:12Z</time>
      </trkpt>
      <trkpt lat="45.01616" lon="6.46744">
        <ele>1757</ele>
        <time>2020-01-23T08:48:14Z</time>
      </trkpt>
      <trkpt lat="45.01618" lon="6.46747">
        <ele>1758</ele>
        <time>2020-01-23T08:48:21Z</time>
      </trkpt>
      <trkpt lat="45.01618" lon="6.4675">
        <ele>1758</ele>
        <time>2020-01-23T08:48:23Z</time>
      </trkpt>
      <trkpt lat="45.01619" lon="6.46754">
        <ele>1758</ele>
        <time>2020-01-23T08:48:26Z</time>
      </trkpt>
      <trkpt lat="45.0162" lon="6.46757">
        <ele>1758</ele>
        <time>2020-01-23T08:48:31Z</time>
      </trkpt>
      <trkpt lat="45.01621" lon="6.46762">
        <ele>1758</ele>
        <time>2020-01-23T08:48:36Z</time>
      </trkpt>
      <trkpt lat="45.01621" lon="6.46772">
        <ele>1759</ele>
        <time>2020-01-23T08:48:44Z</time>
      </trkpt>
      <trkpt lat="45.01623" lon="6.46774">
        <ele>1760</ele>
        <time>2020-01-23T08:48:48Z</time>
      </trkpt>
      <trkpt lat="45.01622" lon="6.46781">
        <ele>1759</ele>
        <time>2020-01-23T08:48:54Z</time>
      </trkpt>
      <trkpt lat="45.01623" lon="6.46786">
        <ele>1760</ele>
        <time>2020-01-23T08:49:00Z</time>
      </trkpt>
      <trkpt lat="45.01622" lon="6.46793">
        <ele>1761</ele>
        <time>2020-01-23T08:49:06Z</time>
      </trkpt>
      <trkpt lat="45.01622" lon="6.46795">
        <ele>1760</ele>
        <time>2020-01-23T08:49:10Z</time>
      </trkpt>
      <trkpt lat="45.01624" lon="6.46796">
        <ele>1761</ele>
        <time>2020-01-23T08:49:13Z</time>
      </trkpt>
      <trkpt lat="45.01626" lon="6.46795">
        <ele>1761</ele>
        <time>2020-01-23T08:49:20Z</time>
      </trkpt>
      <trkpt lat="45.01628" lon="6.46792">
        <ele>1761</ele>
        <time>2020-01-23T08:49:23Z</time>
      </trkpt>
      <trkpt lat="45.01629" lon="6.46789">
        <ele>1760</ele>
        <time>2020-01-23T08:49:27Z</time>
      </trkpt>
      <trkpt lat="45.01632" lon="6.46786">
        <ele>1760</ele>
        <time>2020-01-23T08:49:32Z</time>
      </trkpt>
      <trkpt lat="45.01633" lon="6.46784">
        <ele>1759</ele>
        <time>2020-01-23T08:49:35Z</time>
      </trkpt>
      <trkpt lat="45.01638" lon="6.46776">
        <ele>1761</ele>
        <time>2020-01-23T08:49:46Z</time>
      </trkpt>
      <trkpt lat="45.0164" lon="6.46767">
        <ele>1762</ele>
        <time>2020-01-23T08:49:54Z</time>
      </trkpt>
      <trkpt lat="45.01643" lon="6.46763">
        <ele>1766</ele>
        <time>2020-01-23T08:49:58Z</time>
      </trkpt>
      <trkpt lat="45.01648" lon="6.46761">
        <ele>1770</ele>
        <time>2020-01-23T08:50:05Z</time>
      </trkpt>
      <trkpt lat="45.01646" lon="6.4676">
        <ele>1772</ele>
        <time>2020-01-23T08:50:12Z</time>
      </trkpt>
      <trkpt lat="45.01647" lon="6.46763">
        <ele>1772</ele>
        <time>2020-01-23T08:50:14Z</time>
      </trkpt>
      <trkpt lat="45.01648" lon="6.46765">
        <ele>1772</ele>
        <time>2020-01-23T08:50:16Z</time>
      </trkpt>
      <trkpt lat="45.01649" lon="6.46767">
        <ele>1772</ele>
        <time>2020-01-23T08:50:20Z</time>
      </trkpt>
      <trkpt lat="45.01651" lon="6.46766">
        <ele>1772</ele>
        <time>2020-01-23T08:50:22Z</time>
      </trkpt>
      <trkpt lat="45.01652" lon="6.46765">
        <ele>1773</ele>
        <time>2020-01-23T08:50:24Z</time>
      </trkpt>
      <trkpt lat="45.01655" lon="6.46767">
        <ele>1774</ele>
        <time>2020-01-23T08:50:35Z</time>
      </trkpt>
      <trkpt lat="45.01653" lon="6.46769">
        <ele>1775</ele>
        <time>2020-01-23T08:50:37Z</time>
      </trkpt>
      <trkpt lat="45.01652" lon="6.46776">
        <ele>1776</ele>
        <time>2020-01-23T08:50:45Z</time>
      </trkpt>
      <trkpt lat="45.01653" lon="6.46784">
        <ele>1779</ele>
        <time>2020-01-23T08:50:52Z</time>
      </trkpt>
      <trkpt lat="45.01654" lon="6.46787">
        <ele>1781</ele>
        <time>2020-01-23T08:50:59Z</time>
      </trkpt>
      <trkpt lat="45.01654" lon="6.46789">
        <ele>1782</ele>
        <time>2020-01-23T08:51:02Z</time>
      </trkpt>
      <trkpt lat="45.01657" lon="6.46797">
        <ele>1783</ele>
        <time>2020-01-23T08:51:09Z</time>
      </trkpt>
      <trkpt lat="45.01659" lon="6.46798">
        <ele>1785</ele>
        <time>2020-01-23T08:51:10Z</time>
      </trkpt>
      <trkpt lat="45.01659" lon="6.46801">
        <ele>1785</ele>
        <time>2020-01-23T08:51:14Z</time>
      </trkpt>
      <trkpt lat="45.0166" lon="6.46801">
        <ele>1785</ele>
        <time>2020-01-23T08:51:22Z</time>
      </trkpt>
      <trkpt lat="45.01664" lon="6.46799">
        <ele>1784</ele>
        <time>2020-01-23T08:51:36Z</time>
      </trkpt>
      <trkpt lat="45.01665" lon="6.46802">
        <ele>1784</ele>
        <time>2020-01-23T08:51:42Z</time>
      </trkpt>
      <trkpt lat="45.01665" lon="6.46804">
        <ele>1784</ele>
        <time>2020-01-23T08:51:44Z</time>
      </trkpt>
      <trkpt lat="45.01666" lon="6.46806">
        <ele>1785</ele>
        <time>2020-01-23T08:51:47Z</time>
      </trkpt>
      <trkpt lat="45.01666" lon="6.46808">
        <ele>1786</ele>
        <time>2020-01-23T08:51:50Z</time>
      </trkpt>
      <trkpt lat="45.01668" lon="6.4681">
        <ele>1786</ele>
        <time>2020-01-23T08:51:55Z</time>
      </trkpt>
      <trkpt lat="45.01669" lon="6.46811">
        <ele>1787</ele>
        <time>2020-01-23T08:51:58Z</time>
      </trkpt>
      <trkpt lat="45.01674" lon="6.46819">
        <ele>1788</ele>
        <time>2020-01-23T08:52:09Z</time>
      </trkpt>
      <trkpt lat="45.01676" lon="6.46821">
        <ele>1789</ele>
        <time>2020-01-23T08:52:11Z</time>
      </trkpt>
      <trkpt lat="45.01678" lon="6.46823">
        <ele>1789</ele>
        <time>2020-01-23T08:52:14Z</time>
      </trkpt>
      <trkpt lat="45.01682" lon="6.46826">
        <ele>1790</ele>
        <time>2020-01-23T08:52:21Z</time>
      </trkpt>
      <trkpt lat="45.01684" lon="6.46825">
        <ele>1791</ele>
        <time>2020-01-23T08:52:25Z</time>
      </trkpt>
      <trkpt lat="45.01693" lon="6.46831">
        <ele>1790</ele>
        <time>2020-01-23T08:52:35Z</time>
      </trkpt>
      <trkpt lat="45.01695" lon="6.46832">
        <ele>1791</ele>
        <time>2020-01-23T08:52:37Z</time>
      </trkpt>
      <trkpt lat="45.01696" lon="6.46835">
        <ele>1791</ele>
        <time>2020-01-23T08:52:40Z</time>
      </trkpt>
      <trkpt lat="45.01698" lon="6.46837">
        <ele>1792</ele>
        <time>2020-01-23T08:52:43Z</time>
      </trkpt>
      <trkpt lat="45.01702" lon="6.46842">
        <ele>1793</ele>
        <time>2020-01-23T08:52:49Z</time>
      </trkpt>
      <trkpt lat="45.01707" lon="6.4685">
        <ele>1792</ele>
        <time>2020-01-23T08:52:56Z</time>
      </trkpt>
      <trkpt lat="45.01708" lon="6.46852">
        <ele>1791</ele>
        <time>2020-01-23T08:52:59Z</time>
      </trkpt>
      <trkpt lat="45.01719" lon="6.46866">
        <ele>1792</ele>
        <time>2020-01-23T08:53:12Z</time>
      </trkpt>
      <trkpt lat="45.01725" lon="6.46873">
        <ele>1792</ele>
        <time>2020-01-23T08:53:19Z</time>
      </trkpt>
      <trkpt lat="45.01727" lon="6.46874">
        <ele>1792</ele>
        <time>2020-01-23T08:53:21Z</time>
      </trkpt>
      <trkpt lat="45.01729" lon="6.46876">
        <ele>1793</ele>
        <time>2020-01-23T08:53:24Z</time>
      </trkpt>
      <trkpt lat="45.01731" lon="6.46879">
        <ele>1793</ele>
        <time>2020-01-23T08:53:27Z</time>
      </trkpt>
      <trkpt lat="45.01732" lon="6.4688">
        <ele>1793</ele>
        <time>2020-01-23T08:53:29Z</time>
      </trkpt>
      <trkpt lat="45.0174" lon="6.4689">
        <ele>1795</ele>
        <time>2020-01-23T08:53:39Z</time>
      </trkpt>
      <trkpt lat="45.01747" lon="6.46895">
        <ele>1794</ele>
        <time>2020-01-23T08:53:48Z</time>
      </trkpt>
      <trkpt lat="45.01753" lon="6.469">
        <ele>1796</ele>
        <time>2020-01-23T08:53:55Z</time>
      </trkpt>
      <trkpt lat="45.01756" lon="6.46901">
        <ele>1796</ele>
        <time>2020-01-23T08:53:57Z</time>
      </trkpt>
      <trkpt lat="45.01757" lon="6.46903">
        <ele>1795</ele>
        <time>2020-01-23T08:54:00Z</time>
      </trkpt>
      <trkpt lat="45.01766" lon="6.46912">
        <ele>1795</ele>
        <time>2020-01-23T08:54:13Z</time>
      </trkpt>
      <trkpt lat="45.01772" lon="6.46918">
        <ele>1796</ele>
        <time>2020-01-23T08:54:20Z</time>
      </trkpt>
      <trkpt lat="45.01774" lon="6.4692">
        <ele>1796</ele>
        <time>2020-01-23T08:54:24Z</time>
      </trkpt>
      <trkpt lat="45.0178" lon="6.46926">
        <ele>1797</ele>
        <time>2020-01-23T08:54:30Z</time>
      </trkpt>
      <trkpt lat="45.01785" lon="6.4693">
        <ele>1799</ele>
        <time>2020-01-23T08:54:37Z</time>
      </trkpt>
      <trkpt lat="45.01787" lon="6.46932">
        <ele>1799</ele>
        <time>2020-01-23T08:54:40Z</time>
      </trkpt>
      <trkpt lat="45.01791" lon="6.46936">
        <ele>1799</ele>
        <time>2020-01-23T08:54:46Z</time>
      </trkpt>
      <trkpt lat="45.01794" lon="6.46937">
        <ele>1799</ele>
        <time>2020-01-23T08:54:49Z</time>
      </trkpt>
      <trkpt lat="45.01795" lon="6.46939">
        <ele>1799</ele>
        <time>2020-01-23T08:54:51Z</time>
      </trkpt>
      <trkpt lat="45.01798" lon="6.46939">
        <ele>1799</ele>
        <time>2020-01-23T08:54:53Z</time>
      </trkpt>
      <trkpt lat="45.01801" lon="6.46941">
        <ele>1800</ele>
        <time>2020-01-23T08:54:56Z</time>
      </trkpt>
      <trkpt lat="45.01812" lon="6.46961">
        <ele>1806</ele>
        <time>2020-01-23T08:55:13Z</time>
      </trkpt>
      <trkpt lat="45.01809" lon="6.46959">
        <ele>1806</ele>
        <time>2020-01-23T08:55:16Z</time>
      </trkpt>
      <trkpt lat="45.01818" lon="6.46967">
        <ele>1802</ele>
        <time>2020-01-23T08:55:24Z</time>
      </trkpt>
      <trkpt lat="45.0182" lon="6.4697">
        <ele>1802</ele>
        <time>2020-01-23T08:55:28Z</time>
      </trkpt>
      <trkpt lat="45.01821" lon="6.46982">
        <ele>1801</ele>
        <time>2020-01-23T08:55:43Z</time>
      </trkpt>
      <trkpt lat="45.01821" lon="6.46985">
        <ele>1801</ele>
        <time>2020-01-23T08:55:45Z</time>
      </trkpt>
      <trkpt lat="45.01821" lon="6.46999">
        <ele>1801</ele>
        <time>2020-01-23T08:55:59Z</time>
      </trkpt>
      <trkpt lat="45.01822" lon="6.47005">
        <ele>1802</ele>
        <time>2020-01-23T08:56:04Z</time>
      </trkpt>
      <trkpt lat="45.01824" lon="6.47007">
        <ele>1803</ele>
        <time>2020-01-23T08:56:10Z</time>
      </trkpt>
      <trkpt lat="45.01826" lon="6.47009">
        <ele>1804</ele>
        <time>2020-01-23T08:56:13Z</time>
      </trkpt>
      <trkpt lat="45.0183" lon="6.4701">
        <ele>1805</ele>
        <time>2020-01-23T08:56:18Z</time>
      </trkpt>
      <trkpt lat="45.01835" lon="6.47008">
        <ele>1806</ele>
        <time>2020-01-23T08:56:24Z</time>
      </trkpt>
      <trkpt lat="45.01837" lon="6.47008">
        <ele>1807</ele>
        <time>2020-01-23T08:56:28Z</time>
      </trkpt>
      <trkpt lat="45.01853" lon="6.47006">
        <ele>1812</ele>
        <time>2020-01-23T08:56:50Z</time>
      </trkpt>
      <trkpt lat="45.01856" lon="6.47004">
        <ele>1813</ele>
        <time>2020-01-23T08:56:56Z</time>
      </trkpt>
      <trkpt lat="45.01859" lon="6.47002">
        <ele>1814</ele>
        <time>2020-01-23T08:56:59Z</time>
      </trkpt>
      <trkpt lat="45.0186" lon="6.47001">
        <ele>1814</ele>
        <time>2020-01-23T08:57:02Z</time>
      </trkpt>
      <trkpt lat="45.01863" lon="6.46999">
        <ele>1815</ele>
        <time>2020-01-23T08:57:05Z</time>
      </trkpt>
      <trkpt lat="45.01864" lon="6.46997">
        <ele>1815</ele>
        <time>2020-01-23T08:57:07Z</time>
      </trkpt>
      <trkpt lat="45.01866" lon="6.46995">
        <ele>1814</ele>
        <time>2020-01-23T08:57:10Z</time>
      </trkpt>
      <trkpt lat="45.01866" lon="6.46993">
        <ele>1815</ele>
        <time>2020-01-23T08:57:13Z</time>
      </trkpt>
      <trkpt lat="45.01867" lon="6.4699">
        <ele>1815</ele>
        <time>2020-01-23T08:57:16Z</time>
      </trkpt>
      <trkpt lat="45.01869" lon="6.46988">
        <ele>1816</ele>
        <time>2020-01-23T08:57:19Z</time>
      </trkpt>
      <trkpt lat="45.01871" lon="6.46985">
        <ele>1817</ele>
        <time>2020-01-23T08:57:23Z</time>
      </trkpt>
      <trkpt lat="45.0187" lon="6.4699">
        <ele>1818</ele>
        <time>2020-01-23T08:57:28Z</time>
      </trkpt>
      <trkpt lat="45.01873" lon="6.46987">
        <ele>1819</ele>
        <time>2020-01-23T08:57:33Z</time>
      </trkpt>
      <trkpt lat="45.01875" lon="6.46986">
        <ele>1820</ele>
        <time>2020-01-23T08:57:35Z</time>
      </trkpt>
      <trkpt lat="45.01877" lon="6.46987">
        <ele>1820</ele>
        <time>2020-01-23T08:57:41Z</time>
      </trkpt>
      <trkpt lat="45.01878" lon="6.4699">
        <ele>1822</ele>
        <time>2020-01-23T08:57:45Z</time>
      </trkpt>
      <trkpt lat="45.01878" lon="6.46993">
        <ele>1824</ele>
        <time>2020-01-23T08:57:51Z</time>
      </trkpt>
      <trkpt lat="45.01877" lon="6.46996">
        <ele>1825</ele>
        <time>2020-01-23T08:57:54Z</time>
      </trkpt>
      <trkpt lat="45.01877" lon="6.46999">
        <ele>1826</ele>
        <time>2020-01-23T08:57:57Z</time>
      </trkpt>
      <trkpt lat="45.01878" lon="6.47001">
        <ele>1827</ele>
        <time>2020-01-23T08:58:01Z</time>
      </trkpt>
      <trkpt lat="45.0188" lon="6.47">
        <ele>1827</ele>
        <time>2020-01-23T08:58:03Z</time>
      </trkpt>
      <trkpt lat="45.01885" lon="6.46996">
        <ele>1830</ele>
        <time>2020-01-23T08:58:14Z</time>
      </trkpt>
      <trkpt lat="45.01886" lon="6.46993">
        <ele>1831</ele>
        <time>2020-01-23T08:58:16Z</time>
      </trkpt>
      <trkpt lat="45.01888" lon="6.46993">
        <ele>1831</ele>
        <time>2020-01-23T08:58:20Z</time>
      </trkpt>
      <trkpt lat="45.01891" lon="6.46991">
        <ele>1830</ele>
        <time>2020-01-23T08:58:23Z</time>
      </trkpt>
      <trkpt lat="45.01895" lon="6.46991">
        <ele>1831</ele>
        <time>2020-01-23T08:58:28Z</time>
      </trkpt>
      <trkpt lat="45.01897" lon="6.46988">
        <ele>1832</ele>
        <time>2020-01-23T08:58:31Z</time>
      </trkpt>
      <trkpt lat="45.01898" lon="6.46985">
        <ele>1832</ele>
        <time>2020-01-23T08:58:34Z</time>
      </trkpt>
      <trkpt lat="45.01909" lon="6.46984">
        <ele>1833</ele>
        <time>2020-01-23T08:58:49Z</time>
      </trkpt>
      <trkpt lat="45.01915" lon="6.46983">
        <ele>1835</ele>
        <time>2020-01-23T08:59:02Z</time>
      </trkpt>
      <trkpt lat="45.01922" lon="6.46984">
        <ele>1836</ele>
        <time>2020-01-23T08:59:12Z</time>
      </trkpt>
      <trkpt lat="45.01925" lon="6.46985">
        <ele>1837</ele>
        <time>2020-01-23T08:59:15Z</time>
      </trkpt>
      <trkpt lat="45.0193" lon="6.46984">
        <ele>1838</ele>
        <time>2020-01-23T08:59:21Z</time>
      </trkpt>
      <trkpt lat="45.0194" lon="6.46985">
        <ele>1841</ele>
        <time>2020-01-23T08:59:37Z</time>
      </trkpt>
      <trkpt lat="45.01946" lon="6.46986">
        <ele>1843</ele>
        <time>2020-01-23T08:59:46Z</time>
      </trkpt>
      <trkpt lat="45.01953" lon="6.46987">
        <ele>1844</ele>
        <time>2020-01-23T08:59:52Z</time>
      </trkpt>
      <trkpt lat="45.01955" lon="6.46988">
        <ele>1844</ele>
        <time>2020-01-23T08:59:54Z</time>
      </trkpt>
      <trkpt lat="45.01959" lon="6.46993">
        <ele>1843</ele>
        <time>2020-01-23T09:00:01Z</time>
      </trkpt>
      <trkpt lat="45.01961" lon="6.46996">
        <ele>1843</ele>
        <time>2020-01-23T09:00:04Z</time>
      </trkpt>
      <trkpt lat="45.01962" lon="6.46999">
        <ele>1843</ele>
        <time>2020-01-23T09:00:07Z</time>
      </trkpt>
      <trkpt lat="45.01964" lon="6.47002">
        <ele>1843</ele>
        <time>2020-01-23T09:00:16Z</time>
      </trkpt>
      <trkpt lat="45.01966" lon="6.47004">
        <ele>1844</ele>
        <time>2020-01-23T09:00:19Z</time>
      </trkpt>
      <trkpt lat="45.01969" lon="6.47004">
        <ele>1846</ele>
        <time>2020-01-23T09:00:22Z</time>
      </trkpt>
      <trkpt lat="45.01972" lon="6.47001">
        <ele>1847</ele>
        <time>2020-01-23T09:00:24Z</time>
      </trkpt>
      <trkpt lat="45.0198" lon="6.46995">
        <ele>1848</ele>
        <time>2020-01-23T09:00:34Z</time>
      </trkpt>
      <trkpt lat="45.01982" lon="6.46992">
        <ele>1849</ele>
        <time>2020-01-23T09:00:36Z</time>
      </trkpt>
      <trkpt lat="45.01984" lon="6.4699">
        <ele>1849</ele>
        <time>2020-01-23T09:00:38Z</time>
      </trkpt>
      <trkpt lat="45.01986" lon="6.46987">
        <ele>1848</ele>
        <time>2020-01-23T09:00:40Z</time>
      </trkpt>
      <trkpt lat="45.01989" lon="6.46982">
        <ele>1849</ele>
        <time>2020-01-23T09:00:44Z</time>
      </trkpt>
      <trkpt lat="45.01995" lon="6.46977">
        <ele>1848</ele>
        <time>2020-01-23T09:00:53Z</time>
      </trkpt>
      <trkpt lat="45.01997" lon="6.46978">
        <ele>1849</ele>
        <time>2020-01-23T09:00:58Z</time>
      </trkpt>
      <trkpt lat="45.02001" lon="6.46976">
        <ele>1849</ele>
        <time>2020-01-23T09:01:03Z</time>
      </trkpt>
      <trkpt lat="45.02028" lon="6.46973">
        <ele>1851</ele>
        <time>2020-01-23T09:01:34Z</time>
      </trkpt>
      <trkpt lat="45.02029" lon="6.46974">
        <ele>1851</ele>
        <time>2020-01-23T09:01:36Z</time>
      </trkpt>
      <trkpt lat="45.02035" lon="6.46974">
        <ele>1854</ele>
        <time>2020-01-23T09:01:43Z</time>
      </trkpt>
      <trkpt lat="45.02052" lon="6.46978">
        <ele>1856</ele>
        <time>2020-01-23T09:02:05Z</time>
      </trkpt>
      <trkpt lat="45.0206" lon="6.46985">
        <ele>1857</ele>
        <time>2020-01-23T09:02:19Z</time>
      </trkpt>
      <trkpt lat="45.02061" lon="6.46988">
        <ele>1859</ele>
        <time>2020-01-23T09:02:21Z</time>
      </trkpt>
      <trkpt lat="45.02063" lon="6.4699">
        <ele>1860</ele>
        <time>2020-01-23T09:02:25Z</time>
      </trkpt>
      <trkpt lat="45.02065" lon="6.46992">
        <ele>1860</ele>
        <time>2020-01-23T09:02:28Z</time>
      </trkpt>
      <trkpt lat="45.02067" lon="6.46993">
        <ele>1860</ele>
        <time>2020-01-23T09:02:31Z</time>
      </trkpt>
      <trkpt lat="45.0207" lon="6.46993">
        <ele>1862</ele>
        <time>2020-01-23T09:02:36Z</time>
      </trkpt>
      <trkpt lat="45.02085" lon="6.46998">
        <ele>1864</ele>
        <time>2020-01-23T09:02:54Z</time>
      </trkpt>
      <trkpt lat="45.02087" lon="6.46998">
        <ele>1866</ele>
        <time>2020-01-23T09:02:56Z</time>
      </trkpt>
      <trkpt lat="45.0209" lon="6.47">
        <ele>1866</ele>
        <time>2020-01-23T09:02:59Z</time>
      </trkpt>
      <trkpt lat="45.02096" lon="6.47">
        <ele>1869</ele>
        <time>2020-01-23T09:03:02Z</time>
      </trkpt>
      <trkpt lat="45.02098" lon="6.46998">
        <ele>1870</ele>
        <time>2020-01-23T09:03:03Z</time>
      </trkpt>
      <trkpt lat="45.02101" lon="6.47">
        <ele>1870</ele>
        <time>2020-01-23T09:03:06Z</time>
      </trkpt>
      <trkpt lat="45.021" lon="6.47003">
        <ele>1870</ele>
        <time>2020-01-23T09:03:10Z</time>
      </trkpt>
      <trkpt lat="45.02115" lon="6.47002">
        <ele>1868</ele>
        <time>2020-01-23T09:03:27Z</time>
      </trkpt>
      <trkpt lat="45.0214" lon="6.46993">
        <ele>1870</ele>
        <time>2020-01-23T09:03:57Z</time>
      </trkpt>
      <trkpt lat="45.02147" lon="6.46992">
        <ele>1870</ele>
        <time>2020-01-23T09:04:08Z</time>
      </trkpt>
      <trkpt lat="45.02157" lon="6.46988">
        <ele>1872</ele>
        <time>2020-01-23T09:04:16Z</time>
      </trkpt>
      <trkpt lat="45.02158" lon="6.46988">
        <ele>1872</ele>
        <time>2020-01-23T09:04:18Z</time>
      </trkpt>
      <trkpt lat="45.02161" lon="6.46987">
        <ele>1872</ele>
        <time>2020-01-23T09:04:21Z</time>
      </trkpt>
      <trkpt lat="45.02177" lon="6.46984">
        <ele>1873</ele>
        <time>2020-01-23T09:04:39Z</time>
      </trkpt>
      <trkpt lat="45.02183" lon="6.46984">
        <ele>1875</ele>
        <time>2020-01-23T09:04:45Z</time>
      </trkpt>
      <trkpt lat="45.02217" lon="6.46994">
        <ele>1878</ele>
        <time>2020-01-23T09:05:15Z</time>
      </trkpt>
      <trkpt lat="45.02227" lon="6.46993">
        <ele>1880</ele>
        <time>2020-01-23T09:05:26Z</time>
      </trkpt>
      <trkpt lat="45.0224" lon="6.46996">
        <ele>1883</ele>
        <time>2020-01-23T09:05:39Z</time>
      </trkpt>
      <trkpt lat="45.02243" lon="6.46999">
        <ele>1883</ele>
        <time>2020-01-23T09:05:41Z</time>
      </trkpt>
      <trkpt lat="45.02255" lon="6.47001">
        <ele>1883</ele>
        <time>2020-01-23T09:05:52Z</time>
      </trkpt>
      <trkpt lat="45.02268" lon="6.47001">
        <ele>1884</ele>
        <time>2020-01-23T09:06:08Z</time>
      </trkpt>
      <trkpt lat="45.02272" lon="6.47001">
        <ele>1884</ele>
        <time>2020-01-23T09:06:12Z</time>
      </trkpt>
      <trkpt lat="45.02277" lon="6.47002">
        <ele>1884</ele>
        <time>2020-01-23T09:06:18Z</time>
      </trkpt>
      <trkpt lat="45.0228" lon="6.47002">
        <ele>1884</ele>
        <time>2020-01-23T09:06:21Z</time>
      </trkpt>
      <trkpt lat="45.02305" lon="6.46999">
        <ele>1887</ele>
        <time>2020-01-23T09:06:55Z</time>
      </trkpt>
      <trkpt lat="45.02309" lon="6.47004">
        <ele>1887</ele>
        <time>2020-01-23T09:07:05Z</time>
      </trkpt>
      <trkpt lat="45.02312" lon="6.47007">
        <ele>1888</ele>
        <time>2020-01-23T09:07:10Z</time>
      </trkpt>
      <trkpt lat="45.02317" lon="6.47009">
        <ele>1890</ele>
        <time>2020-01-23T09:07:15Z</time>
      </trkpt>
      <trkpt lat="45.02322" lon="6.47017">
        <ele>1892</ele>
        <time>2020-01-23T09:07:25Z</time>
      </trkpt>
      <trkpt lat="45.02325" lon="6.47019">
        <ele>1892</ele>
        <time>2020-01-23T09:07:28Z</time>
      </trkpt>
      <trkpt lat="45.02327" lon="6.47021">
        <ele>1892</ele>
        <time>2020-01-23T09:07:31Z</time>
      </trkpt>
      <trkpt lat="45.02328" lon="6.47024">
        <ele>1892</ele>
        <time>2020-01-23T09:07:34Z</time>
      </trkpt>
      <trkpt lat="45.0233" lon="6.47028">
        <ele>1893</ele>
        <time>2020-01-23T09:07:37Z</time>
      </trkpt>
      <trkpt lat="45.02335" lon="6.47035">
        <ele>1894</ele>
        <time>2020-01-23T09:07:46Z</time>
      </trkpt>
      <trkpt lat="45.0234" lon="6.47037">
        <ele>1894</ele>
        <time>2020-01-23T09:07:52Z</time>
      </trkpt>
      <trkpt lat="45.02341" lon="6.4704">
        <ele>1895</ele>
        <time>2020-01-23T09:07:55Z</time>
      </trkpt>
      <trkpt lat="45.02343" lon="6.47043">
        <ele>1895</ele>
        <time>2020-01-23T09:07:59Z</time>
      </trkpt>
      <trkpt lat="45.02346" lon="6.47045">
        <ele>1895</ele>
        <time>2020-01-23T09:08:04Z</time>
      </trkpt>
      <trkpt lat="45.02351" lon="6.47052">
        <ele>1897</ele>
        <time>2020-01-23T09:08:13Z</time>
      </trkpt>
      <trkpt lat="45.02353" lon="6.47053">
        <ele>1897</ele>
        <time>2020-01-23T09:08:15Z</time>
      </trkpt>
      <trkpt lat="45.02356" lon="6.47054">
        <ele>1898</ele>
        <time>2020-01-23T09:08:20Z</time>
      </trkpt>
      <trkpt lat="45.02361" lon="6.47062">
        <ele>1900</ele>
        <time>2020-01-23T09:08:28Z</time>
      </trkpt>
      <trkpt lat="45.02365" lon="6.4707">
        <ele>1900</ele>
        <time>2020-01-23T09:08:35Z</time>
      </trkpt>
      <trkpt lat="45.02371" lon="6.47087">
        <ele>1899</ele>
        <time>2020-01-23T09:08:49Z</time>
      </trkpt>
      <trkpt lat="45.02376" lon="6.4709">
        <ele>1900</ele>
        <time>2020-01-23T09:08:54Z</time>
      </trkpt>
      <trkpt lat="45.02376" lon="6.47093">
        <ele>1901</ele>
        <time>2020-01-23T09:08:56Z</time>
      </trkpt>
      <trkpt lat="45.02378" lon="6.47096">
        <ele>1901</ele>
        <time>2020-01-23T09:09:01Z</time>
      </trkpt>
      <trkpt lat="45.0238" lon="6.47099">
        <ele>1901</ele>
        <time>2020-01-23T09:09:04Z</time>
      </trkpt>
      <trkpt lat="45.02382" lon="6.47101">
        <ele>1902</ele>
        <time>2020-01-23T09:09:07Z</time>
      </trkpt>
      <trkpt lat="45.02382" lon="6.47105">
        <ele>1903</ele>
        <time>2020-01-23T09:09:10Z</time>
      </trkpt>
      <trkpt lat="45.02384" lon="6.47107">
        <ele>1903</ele>
        <time>2020-01-23T09:09:13Z</time>
      </trkpt>
      <trkpt lat="45.02386" lon="6.47108">
        <ele>1903</ele>
        <time>2020-01-23T09:09:16Z</time>
      </trkpt>
      <trkpt lat="45.02389" lon="6.47113">
        <ele>1903</ele>
        <time>2020-01-23T09:09:21Z</time>
      </trkpt>
      <trkpt lat="45.02391" lon="6.47119">
        <ele>1902</ele>
        <time>2020-01-23T09:09:26Z</time>
      </trkpt>
      <trkpt lat="45.02392" lon="6.47122">
        <ele>1902</ele>
        <time>2020-01-23T09:09:29Z</time>
      </trkpt>
      <trkpt lat="45.02395" lon="6.47126">
        <ele>1904</ele>
        <time>2020-01-23T09:09:33Z</time>
      </trkpt>
      <trkpt lat="45.02397" lon="6.47138">
        <ele>1905</ele>
        <time>2020-01-23T09:09:45Z</time>
      </trkpt>
      <trkpt lat="45.02398" lon="6.4714">
        <ele>1905</ele>
        <time>2020-01-23T09:09:47Z</time>
      </trkpt>
      <trkpt lat="45.02399" lon="6.47143">
        <ele>1906</ele>
        <time>2020-01-23T09:09:50Z</time>
      </trkpt>
      <trkpt lat="45.024" lon="6.47146">
        <ele>1906</ele>
        <time>2020-01-23T09:09:53Z</time>
      </trkpt>
      <trkpt lat="45.02406" lon="6.47152">
        <ele>1907</ele>
        <time>2020-01-23T09:10:00Z</time>
      </trkpt>
      <trkpt lat="45.02408" lon="6.47161">
        <ele>1909</ele>
        <time>2020-01-23T09:10:07Z</time>
      </trkpt>
      <trkpt lat="45.02407" lon="6.47165">
        <ele>1909</ele>
        <time>2020-01-23T09:10:10Z</time>
      </trkpt>
      <trkpt lat="45.02407" lon="6.4717">
        <ele>1910</ele>
        <time>2020-01-23T09:10:13Z</time>
      </trkpt>
      <trkpt lat="45.02412" lon="6.47176">
        <ele>1913</ele>
        <time>2020-01-23T09:10:23Z</time>
      </trkpt>
      <trkpt lat="45.02414" lon="6.47182">
        <ele>1913</ele>
        <time>2020-01-23T09:10:27Z</time>
      </trkpt>
      <trkpt lat="45.02417" lon="6.47182">
        <ele>1915</ele>
        <time>2020-01-23T09:10:32Z</time>
      </trkpt>
      <trkpt lat="45.02418" lon="6.47185">
        <ele>1914</ele>
        <time>2020-01-23T09:10:35Z</time>
      </trkpt>
      <trkpt lat="45.02422" lon="6.47192">
        <ele>1912</ele>
        <time>2020-01-23T09:10:48Z</time>
      </trkpt>
      <trkpt lat="45.02427" lon="6.47201">
        <ele>1912</ele>
        <time>2020-01-23T09:11:01Z</time>
      </trkpt>
      <trkpt lat="45.02429" lon="6.47204">
        <ele>1912</ele>
        <time>2020-01-23T09:11:05Z</time>
      </trkpt>
      <trkpt lat="45.0243" lon="6.47207">
        <ele>1913</ele>
        <time>2020-01-23T09:11:07Z</time>
      </trkpt>
      <trkpt lat="45.02431" lon="6.47208">
        <ele>1913</ele>
        <time>2020-01-23T09:11:09Z</time>
      </trkpt>
      <trkpt lat="45.02432" lon="6.47211">
        <ele>1913</ele>
        <time>2020-01-23T09:11:12Z</time>
      </trkpt>
      <trkpt lat="45.02436" lon="6.47215">
        <ele>1913</ele>
        <time>2020-01-23T09:11:15Z</time>
      </trkpt>
      <trkpt lat="45.02437" lon="6.47219">
        <ele>1913</ele>
        <time>2020-01-23T09:11:18Z</time>
      </trkpt>
      <trkpt lat="45.02438" lon="6.47222">
        <ele>1914</ele>
        <time>2020-01-23T09:11:20Z</time>
      </trkpt>
      <trkpt lat="45.02439" lon="6.47225">
        <ele>1915</ele>
        <time>2020-01-23T09:11:24Z</time>
      </trkpt>
      <trkpt lat="45.0244" lon="6.47228">
        <ele>1915</ele>
        <time>2020-01-23T09:11:26Z</time>
      </trkpt>
      <trkpt lat="45.02443" lon="6.47232">
        <ele>1915</ele>
        <time>2020-01-23T09:11:33Z</time>
      </trkpt>
      <trkpt lat="45.0245" lon="6.47248">
        <ele>1917</ele>
        <time>2020-01-23T09:11:49Z</time>
      </trkpt>
      <trkpt lat="45.02453" lon="6.47257">
        <ele>1919</ele>
        <time>2020-01-23T09:11:56Z</time>
      </trkpt>
      <trkpt lat="45.02455" lon="6.47263">
        <ele>1920</ele>
        <time>2020-01-23T09:12:03Z</time>
      </trkpt>
      <trkpt lat="45.02456" lon="6.47266">
        <ele>1922</ele>
        <time>2020-01-23T09:12:06Z</time>
      </trkpt>
      <trkpt lat="45.02456" lon="6.47269">
        <ele>1922</ele>
        <time>2020-01-23T09:12:09Z</time>
      </trkpt>
      <trkpt lat="45.02457" lon="6.47272">
        <ele>1922</ele>
        <time>2020-01-23T09:12:12Z</time>
      </trkpt>
      <trkpt lat="45.02458" lon="6.47276">
        <ele>1922</ele>
        <time>2020-01-23T09:12:16Z</time>
      </trkpt>
      <trkpt lat="45.02461" lon="6.47284">
        <ele>1924</ele>
        <time>2020-01-23T09:12:24Z</time>
      </trkpt>
      <trkpt lat="45.02462" lon="6.47288">
        <ele>1925</ele>
        <time>2020-01-23T09:12:28Z</time>
      </trkpt>
      <trkpt lat="45.02463" lon="6.47292">
        <ele>1927</ele>
        <time>2020-01-23T09:12:32Z</time>
      </trkpt>
      <trkpt lat="45.02465" lon="6.47295">
        <ele>1927</ele>
        <time>2020-01-23T09:12:37Z</time>
      </trkpt>
      <trkpt lat="45.02466" lon="6.47299">
        <ele>1927</ele>
        <time>2020-01-23T09:12:41Z</time>
      </trkpt>
      <trkpt lat="45.02471" lon="6.47307">
        <ele>1928</ele>
        <time>2020-01-23T09:12:54Z</time>
      </trkpt>
      <trkpt lat="45.02479" lon="6.47336">
        <ele>1930</ele>
        <time>2020-01-23T09:13:25Z</time>
      </trkpt>
      <trkpt lat="45.0248" lon="6.47339">
        <ele>1932</ele>
        <time>2020-01-23T09:13:29Z</time>
      </trkpt>
      <trkpt lat="45.02481" lon="6.47342">
        <ele>1932</ele>
        <time>2020-01-23T09:13:32Z</time>
      </trkpt>
      <trkpt lat="45.02482" lon="6.47352">
        <ele>1938</ele>
        <time>2020-01-23T09:13:43Z</time>
      </trkpt>
      <trkpt lat="45.02484" lon="6.47355">
        <ele>1939</ele>
        <time>2020-01-23T09:13:46Z</time>
      </trkpt>
      <trkpt lat="45.02485" lon="6.47358">
        <ele>1939</ele>
        <time>2020-01-23T09:13:50Z</time>
      </trkpt>
      <trkpt lat="45.02487" lon="6.47364">
        <ele>1939</ele>
        <time>2020-01-23T09:13:57Z</time>
      </trkpt>
      <trkpt lat="45.02489" lon="6.47369">
        <ele>1939</ele>
        <time>2020-01-23T09:14:05Z</time>
      </trkpt>
      <trkpt lat="45.0249" lon="6.47372">
        <ele>1939</ele>
        <time>2020-01-23T09:14:08Z</time>
      </trkpt>
      <trkpt lat="45.02493" lon="6.47391">
        <ele>1941</ele>
        <time>2020-01-23T09:14:25Z</time>
      </trkpt>
      <trkpt lat="45.02494" lon="6.47393">
        <ele>1942</ele>
        <time>2020-01-23T09:14:27Z</time>
      </trkpt>
      <trkpt lat="45.025" lon="6.47404">
        <ele>1946</ele>
        <time>2020-01-23T09:14:43Z</time>
      </trkpt>
      <trkpt lat="45.02502" lon="6.47415">
        <ele>1946</ele>
        <time>2020-01-23T09:14:54Z</time>
      </trkpt>
      <trkpt lat="45.02503" lon="6.47419">
        <ele>1946</ele>
        <time>2020-01-23T09:14:58Z</time>
      </trkpt>
      <trkpt lat="45.02504" lon="6.47423">
        <ele>1947</ele>
        <time>2020-01-23T09:15:01Z</time>
      </trkpt>
      <trkpt lat="45.02506" lon="6.47425">
        <ele>1948</ele>
        <time>2020-01-23T09:15:05Z</time>
      </trkpt>
      <trkpt lat="45.02507" lon="6.47429">
        <ele>1948</ele>
        <time>2020-01-23T09:15:09Z</time>
      </trkpt>
      <trkpt lat="45.02508" lon="6.47433">
        <ele>1947</ele>
        <time>2020-01-23T09:15:13Z</time>
      </trkpt>
      <trkpt lat="45.02508" lon="6.4744">
        <ele>1948</ele>
        <time>2020-01-23T09:15:20Z</time>
      </trkpt>
      <trkpt lat="45.02518" lon="6.47464">
        <ele>1951</ele>
        <time>2020-01-23T09:15:49Z</time>
      </trkpt>
      <trkpt lat="45.02518" lon="6.47467">
        <ele>1952</ele>
        <time>2020-01-23T09:15:52Z</time>
      </trkpt>
      <trkpt lat="45.02519" lon="6.4747">
        <ele>1952</ele>
        <time>2020-01-23T09:15:55Z</time>
      </trkpt>
      <trkpt lat="45.0252" lon="6.47477">
        <ele>1954</ele>
        <time>2020-01-23T09:16:03Z</time>
      </trkpt>
      <trkpt lat="45.02522" lon="6.4748">
        <ele>1956</ele>
        <time>2020-01-23T09:16:06Z</time>
      </trkpt>
      <trkpt lat="45.02523" lon="6.47483">
        <ele>1958</ele>
        <time>2020-01-23T09:16:10Z</time>
      </trkpt>
      <trkpt lat="45.02524" lon="6.47487">
        <ele>1959</ele>
        <time>2020-01-23T09:16:14Z</time>
      </trkpt>
      <trkpt lat="45.02525" lon="6.47495">
        <ele>1959</ele>
        <time>2020-01-23T09:16:22Z</time>
      </trkpt>
      <trkpt lat="45.02527" lon="6.47499">
        <ele>1958</ele>
        <time>2020-01-23T09:16:30Z</time>
      </trkpt>
      <trkpt lat="45.02528" lon="6.47503">
        <ele>1957</ele>
        <time>2020-01-23T09:16:33Z</time>
      </trkpt>
      <trkpt lat="45.0253" lon="6.4751">
        <ele>1958</ele>
        <time>2020-01-23T09:16:43Z</time>
      </trkpt>
      <trkpt lat="45.02532" lon="6.47513">
        <ele>1957</ele>
        <time>2020-01-23T09:16:47Z</time>
      </trkpt>
      <trkpt lat="45.02533" lon="6.47515">
        <ele>1958</ele>
        <time>2020-01-23T09:16:51Z</time>
      </trkpt>
      <trkpt lat="45.02535" lon="6.47518">
        <ele>1959</ele>
        <time>2020-01-23T09:16:54Z</time>
      </trkpt>
      <trkpt lat="45.02537" lon="6.47522">
        <ele>1961</ele>
        <time>2020-01-23T09:16:58Z</time>
      </trkpt>
      <trkpt lat="45.02538" lon="6.47524">
        <ele>1961</ele>
        <time>2020-01-23T09:17:02Z</time>
      </trkpt>
      <trkpt lat="45.0254" lon="6.47526">
        <ele>1962</ele>
        <time>2020-01-23T09:17:06Z</time>
      </trkpt>
      <trkpt lat="45.02542" lon="6.47529">
        <ele>1963</ele>
        <time>2020-01-23T09:17:11Z</time>
      </trkpt>
      <trkpt lat="45.02543" lon="6.47533">
        <ele>1963</ele>
        <time>2020-01-23T09:17:15Z</time>
      </trkpt>
      <trkpt lat="45.02545" lon="6.47541">
        <ele>1964</ele>
        <time>2020-01-23T09:17:23Z</time>
      </trkpt>
      <trkpt lat="45.02546" lon="6.47543">
        <ele>1965</ele>
        <time>2020-01-23T09:17:26Z</time>
      </trkpt>
      <trkpt lat="45.02547" lon="6.47546">
        <ele>1966</ele>
        <time>2020-01-23T09:17:31Z</time>
      </trkpt>
      <trkpt lat="45.02548" lon="6.4755">
        <ele>1967</ele>
        <time>2020-01-23T09:17:36Z</time>
      </trkpt>
      <trkpt lat="45.02551" lon="6.47559">
        <ele>1968</ele>
        <time>2020-01-23T09:17:51Z</time>
      </trkpt>
      <trkpt lat="45.02553" lon="6.47569">
        <ele>1968</ele>
        <time>2020-01-23T09:18:01Z</time>
      </trkpt>
      <trkpt lat="45.02554" lon="6.47576">
        <ele>1970</ele>
        <time>2020-01-23T09:18:08Z</time>
      </trkpt>
      <trkpt lat="45.02555" lon="6.47581">
        <ele>1971</ele>
        <time>2020-01-23T09:18:13Z</time>
      </trkpt>
      <trkpt lat="45.02556" lon="6.47583">
        <ele>1972</ele>
        <time>2020-01-23T09:18:16Z</time>
      </trkpt>
      <trkpt lat="45.02561" lon="6.47608">
        <ele>1976</ele>
        <time>2020-01-23T09:18:46Z</time>
      </trkpt>
      <trkpt lat="45.02563" lon="6.47613">
        <ele>1977</ele>
        <time>2020-01-23T09:18:52Z</time>
      </trkpt>
      <trkpt lat="45.02563" lon="6.47616">
        <ele>1977</ele>
        <time>2020-01-23T09:18:55Z</time>
      </trkpt>
      <trkpt lat="45.02562" lon="6.47619">
        <ele>1977</ele>
        <time>2020-01-23T09:18:58Z</time>
      </trkpt>
      <trkpt lat="45.02563" lon="6.47626">
        <ele>1981</ele>
        <time>2020-01-23T09:19:05Z</time>
      </trkpt>
      <trkpt lat="45.02564" lon="6.47629">
        <ele>1983</ele>
        <time>2020-01-23T09:19:09Z</time>
      </trkpt>
      <trkpt lat="45.02566" lon="6.4763">
        <ele>1983</ele>
        <time>2020-01-23T09:19:11Z</time>
      </trkpt>
      <trkpt lat="45.02566" lon="6.47634">
        <ele>1984</ele>
        <time>2020-01-23T09:19:14Z</time>
      </trkpt>
      <trkpt lat="45.02568" lon="6.47646">
        <ele>1988</ele>
        <time>2020-01-23T09:19:29Z</time>
      </trkpt>
      <trkpt lat="45.02569" lon="6.47649">
        <ele>1988</ele>
        <time>2020-01-23T09:19:35Z</time>
      </trkpt>
      <trkpt lat="45.02569" lon="6.47653">
        <ele>1989</ele>
        <time>2020-01-23T09:19:38Z</time>
      </trkpt>
      <trkpt lat="45.02568" lon="6.47656">
        <ele>1990</ele>
        <time>2020-01-23T09:19:42Z</time>
      </trkpt>
      <trkpt lat="45.02569" lon="6.4766">
        <ele>1991</ele>
        <time>2020-01-23T09:19:45Z</time>
      </trkpt>
      <trkpt lat="45.0257" lon="6.47662">
        <ele>1992</ele>
        <time>2020-01-23T09:19:49Z</time>
      </trkpt>
      <trkpt lat="45.0257" lon="6.47665">
        <ele>1992</ele>
        <time>2020-01-23T09:19:53Z</time>
      </trkpt>
      <trkpt lat="45.02571" lon="6.47668">
        <ele>1992</ele>
        <time>2020-01-23T09:19:57Z</time>
      </trkpt>
      <trkpt lat="45.02574" lon="6.47694">
        <ele>1994</ele>
        <time>2020-01-23T09:20:30Z</time>
      </trkpt>
      <trkpt lat="45.02577" lon="6.477">
        <ele>1996</ele>
        <time>2020-01-23T09:20:39Z</time>
      </trkpt>
      <trkpt lat="45.02576" lon="6.47704">
        <ele>1996</ele>
        <time>2020-01-23T09:20:45Z</time>
      </trkpt>
      <trkpt lat="45.02582" lon="6.47722">
        <ele>2002</ele>
        <time>2020-01-23T09:21:06Z</time>
      </trkpt>
      <trkpt lat="45.02585" lon="6.47739">
        <ele>2004</ele>
        <time>2020-01-23T09:21:27Z</time>
      </trkpt>
      <trkpt lat="45.02584" lon="6.47743">
        <ele>2004</ele>
        <time>2020-01-23T09:21:33Z</time>
      </trkpt>
      <trkpt lat="45.02586" lon="6.47745">
        <ele>2004</ele>
        <time>2020-01-23T09:21:37Z</time>
      </trkpt>
      <trkpt lat="45.02586" lon="6.47749">
        <ele>2005</ele>
        <time>2020-01-23T09:21:42Z</time>
      </trkpt>
      <trkpt lat="45.02589" lon="6.47751">
        <ele>2005</ele>
        <time>2020-01-23T09:21:45Z</time>
      </trkpt>
      <trkpt lat="45.02588" lon="6.47758">
        <ele>2008</ele>
        <time>2020-01-23T09:21:53Z</time>
      </trkpt>
      <trkpt lat="45.02589" lon="6.47762">
        <ele>2009</ele>
        <time>2020-01-23T09:21:57Z</time>
      </trkpt>
      <trkpt lat="45.02591" lon="6.47765">
        <ele>2010</ele>
        <time>2020-01-23T09:22:01Z</time>
      </trkpt>
      <trkpt lat="45.02591" lon="6.47768">
        <ele>2010</ele>
        <time>2020-01-23T09:22:03Z</time>
      </trkpt>
      <trkpt lat="45.02591" lon="6.47771">
        <ele>2012</ele>
        <time>2020-01-23T09:22:08Z</time>
      </trkpt>
      <trkpt lat="45.02592" lon="6.47774">
        <ele>2013</ele>
        <time>2020-01-23T09:22:16Z</time>
      </trkpt>
      <trkpt lat="45.02594" lon="6.47784">
        <ele>2016</ele>
        <time>2020-01-23T09:22:28Z</time>
      </trkpt>
      <trkpt lat="45.02597" lon="6.4779">
        <ele>2018</ele>
        <time>2020-01-23T09:22:38Z</time>
      </trkpt>
      <trkpt lat="45.026" lon="6.47792">
        <ele>2019</ele>
        <time>2020-01-23T09:22:43Z</time>
      </trkpt>
      <trkpt lat="45.02603" lon="6.47804">
        <ele>2026</ele>
        <time>2020-01-23T09:23:17Z</time>
      </trkpt>
      <trkpt lat="45.02604" lon="6.47808">
        <ele>2026</ele>
        <time>2020-01-23T09:23:20Z</time>
      </trkpt>
      <trkpt lat="45.02606" lon="6.47811">
        <ele>2027</ele>
        <time>2020-01-23T09:23:22Z</time>
      </trkpt>
      <trkpt lat="45.02606" lon="6.47815">
        <ele>2027</ele>
        <time>2020-01-23T09:23:25Z</time>
      </trkpt>
      <trkpt lat="45.02608" lon="6.47816">
        <ele>2027</ele>
        <time>2020-01-23T09:23:29Z</time>
      </trkpt>
      <trkpt lat="45.02611" lon="6.47817">
        <ele>2026</ele>
        <time>2020-01-23T09:23:32Z</time>
      </trkpt>
      <trkpt lat="45.02611" lon="6.47821">
        <ele>2026</ele>
        <time>2020-01-23T09:23:36Z</time>
      </trkpt>
      <trkpt lat="45.02613" lon="6.47825">
        <ele>2026</ele>
        <time>2020-01-23T09:23:42Z</time>
      </trkpt>
      <trkpt lat="45.02614" lon="6.47828">
        <ele>2029</ele>
        <time>2020-01-23T09:23:45Z</time>
      </trkpt>
      <trkpt lat="45.02617" lon="6.47832">
        <ele>2030</ele>
        <time>2020-01-23T09:23:50Z</time>
      </trkpt>
      <trkpt lat="45.02618" lon="6.47835">
        <ele>2032</ele>
        <time>2020-01-23T09:23:56Z</time>
      </trkpt>
      <trkpt lat="45.02623" lon="6.47844">
        <ele>2032</ele>
        <time>2020-01-23T09:24:10Z</time>
      </trkpt>
      <trkpt lat="45.02624" lon="6.47848">
        <ele>2032</ele>
        <time>2020-01-23T09:24:15Z</time>
      </trkpt>
      <trkpt lat="45.02625" lon="6.4785">
        <ele>2033</ele>
        <time>2020-01-23T09:24:18Z</time>
      </trkpt>
      <trkpt lat="45.02624" lon="6.47854">
        <ele>2032</ele>
        <time>2020-01-23T09:24:22Z</time>
      </trkpt>
      <trkpt lat="45.02626" lon="6.47857">
        <ele>2033</ele>
        <time>2020-01-23T09:24:26Z</time>
      </trkpt>
      <trkpt lat="45.02628" lon="6.47858">
        <ele>2034</ele>
        <time>2020-01-23T09:24:30Z</time>
      </trkpt>
      <trkpt lat="45.02628" lon="6.47862">
        <ele>2037</ele>
        <time>2020-01-23T09:24:35Z</time>
      </trkpt>
      <trkpt lat="45.02627" lon="6.47866">
        <ele>2039</ele>
        <time>2020-01-23T09:24:39Z</time>
      </trkpt>
      <trkpt lat="45.02631" lon="6.47871">
        <ele>2039</ele>
        <time>2020-01-23T09:24:46Z</time>
      </trkpt>
      <trkpt lat="45.02633" lon="6.47873">
        <ele>2038</ele>
        <time>2020-01-23T09:24:54Z</time>
      </trkpt>
      <trkpt lat="45.02638" lon="6.4788">
        <ele>2039</ele>
        <time>2020-01-23T09:25:01Z</time>
      </trkpt>
      <trkpt lat="45.02641" lon="6.47881">
        <ele>2039</ele>
        <time>2020-01-23T09:25:05Z</time>
      </trkpt>
      <trkpt lat="45.02642" lon="6.47885">
        <ele>2039</ele>
        <time>2020-01-23T09:25:14Z</time>
      </trkpt>
      <trkpt lat="45.02641" lon="6.47888">
        <ele>2040</ele>
        <time>2020-01-23T09:25:18Z</time>
      </trkpt>
      <trkpt lat="45.02641" lon="6.47891">
        <ele>2041</ele>
        <time>2020-01-23T09:25:26Z</time>
      </trkpt>
      <trkpt lat="45.02646" lon="6.47898">
        <ele>2043</ele>
        <time>2020-01-23T09:25:36Z</time>
      </trkpt>
      <trkpt lat="45.02648" lon="6.479">
        <ele>2044</ele>
        <time>2020-01-23T09:25:39Z</time>
      </trkpt>
      <trkpt lat="45.02653" lon="6.47899">
        <ele>2045</ele>
        <time>2020-01-23T09:25:44Z</time>
      </trkpt>
      <trkpt lat="45.02659" lon="6.47895">
        <ele>2046</ele>
        <time>2020-01-23T09:25:55Z</time>
      </trkpt>
      <trkpt lat="45.0266" lon="6.47891">
        <ele>2047</ele>
        <time>2020-01-23T09:26:02Z</time>
      </trkpt>
      <trkpt lat="45.02663" lon="6.47892">
        <ele>2047</ele>
        <time>2020-01-23T09:26:05Z</time>
      </trkpt>
      <trkpt lat="45.02669" lon="6.47891">
        <ele>2050</ele>
        <time>2020-01-23T09:26:10Z</time>
      </trkpt>
      <trkpt lat="45.02671" lon="6.47892">
        <ele>2050</ele>
        <time>2020-01-23T09:26:13Z</time>
      </trkpt>
      <trkpt lat="45.02673" lon="6.47893">
        <ele>2051</ele>
        <time>2020-01-23T09:26:19Z</time>
      </trkpt>
      <trkpt lat="45.02673" lon="6.47896">
        <ele>2053</ele>
        <time>2020-01-23T09:26:33Z</time>
      </trkpt>
      <trkpt lat="45.02668" lon="6.47905">
        <ele>2054</ele>
        <time>2020-01-23T09:26:42Z</time>
      </trkpt>
      <trkpt lat="45.02663" lon="6.47909">
        <ele>2055</ele>
        <time>2020-01-23T09:26:48Z</time>
      </trkpt>
      <trkpt lat="45.02666" lon="6.47914">
        <ele>2055</ele>
        <time>2020-01-23T09:26:57Z</time>
      </trkpt>
      <trkpt lat="45.02667" lon="6.47916">
        <ele>2055</ele>
        <time>2020-01-23T09:27:00Z</time>
      </trkpt>
      <trkpt lat="45.02664" lon="6.47922">
        <ele>2056</ele>
        <time>2020-01-23T09:27:08Z</time>
      </trkpt>
      <trkpt lat="45.0266" lon="6.4793">
        <ele>2056</ele>
        <time>2020-01-23T09:27:17Z</time>
      </trkpt>
      <trkpt lat="45.02658" lon="6.47933">
        <ele>2057</ele>
        <time>2020-01-23T09:27:20Z</time>
      </trkpt>
      <trkpt lat="45.02657" lon="6.47936">
        <ele>2058</ele>
        <time>2020-01-23T09:27:24Z</time>
      </trkpt>
      <trkpt lat="45.02656" lon="6.47939">
        <ele>2058</ele>
        <time>2020-01-23T09:27:30Z</time>
      </trkpt>
      <trkpt lat="45.02657" lon="6.47943">
        <ele>2055</ele>
        <time>2020-01-23T09:27:33Z</time>
      </trkpt>
      <trkpt lat="45.02658" lon="6.4794">
        <ele>2056</ele>
        <time>2020-01-23T09:27:40Z</time>
      </trkpt>
      <trkpt lat="45.02659" lon="6.47938">
        <ele>2057</ele>
        <time>2020-01-23T09:27:43Z</time>
      </trkpt>
      <trkpt lat="45.02661" lon="6.47936">
        <ele>2058</ele>
        <time>2020-01-23T09:27:49Z</time>
      </trkpt>
      <trkpt lat="45.02664" lon="6.47936">
        <ele>2059</ele>
        <time>2020-01-23T09:27:54Z</time>
      </trkpt>
      <trkpt lat="45.02667" lon="6.47933">
        <ele>2060</ele>
        <time>2020-01-23T09:27:59Z</time>
      </trkpt>
      <trkpt lat="45.0267" lon="6.47932">
        <ele>2060</ele>
        <time>2020-01-23T09:28:02Z</time>
      </trkpt>
      <trkpt lat="45.02672" lon="6.47931">
        <ele>2061</ele>
        <time>2020-01-23T09:28:05Z</time>
      </trkpt>
      <trkpt lat="45.02675" lon="6.47933">
        <ele>2062</ele>
        <time>2020-01-23T09:28:10Z</time>
      </trkpt>
      <trkpt lat="45.02677" lon="6.47933">
        <ele>2064</ele>
        <time>2020-01-23T09:28:21Z</time>
      </trkpt>
      <trkpt lat="45.02679" lon="6.47936">
        <ele>2064</ele>
        <time>2020-01-23T09:28:27Z</time>
      </trkpt>
      <trkpt lat="45.02684" lon="6.47941">
        <ele>2066</ele>
        <time>2020-01-23T09:28:33Z</time>
      </trkpt>
      <trkpt lat="45.02688" lon="6.47941">
        <ele>2070</ele>
        <time>2020-01-23T09:28:38Z</time>
      </trkpt>
      <trkpt lat="45.02691" lon="6.4794">
        <ele>2071</ele>
        <time>2020-01-23T09:28:42Z</time>
      </trkpt>
      <trkpt lat="45.02699" lon="6.47943">
        <ele>2070</ele>
        <time>2020-01-23T09:28:58Z</time>
      </trkpt>
      <trkpt lat="45.027" lon="6.47947">
        <ele>2071</ele>
        <time>2020-01-23T09:29:04Z</time>
      </trkpt>
      <trkpt lat="45.02702" lon="6.4795">
        <ele>2074</ele>
        <time>2020-01-23T09:29:11Z</time>
      </trkpt>
      <trkpt lat="45.02704" lon="6.4795">
        <ele>2075</ele>
        <time>2020-01-23T09:29:13Z</time>
      </trkpt>
      <trkpt lat="45.02707" lon="6.47949">
        <ele>2076</ele>
        <time>2020-01-23T09:29:16Z</time>
      </trkpt>
      <trkpt lat="45.02709" lon="6.47951">
        <ele>2077</ele>
        <time>2020-01-23T09:29:20Z</time>
      </trkpt>
      <trkpt lat="45.02711" lon="6.47952">
        <ele>2078</ele>
        <time>2020-01-23T09:29:25Z</time>
      </trkpt>
      <trkpt lat="45.02713" lon="6.47955">
        <ele>2077</ele>
        <time>2020-01-23T09:29:35Z</time>
      </trkpt>
      <trkpt lat="45.02715" lon="6.47955">
        <ele>2077</ele>
        <time>2020-01-23T09:29:41Z</time>
      </trkpt>
      <trkpt lat="45.02723" lon="6.4796">
        <ele>2077</ele>
        <time>2020-01-23T09:29:51Z</time>
      </trkpt>
      <trkpt lat="45.02736" lon="6.47965">
        <ele>2080</ele>
        <time>2020-01-23T09:30:11Z</time>
      </trkpt>
      <trkpt lat="45.02739" lon="6.47967">
        <ele>2081</ele>
        <time>2020-01-23T09:30:14Z</time>
      </trkpt>
      <trkpt lat="45.02742" lon="6.47968">
        <ele>2083</ele>
        <time>2020-01-23T09:30:19Z</time>
      </trkpt>
      <trkpt lat="45.02743" lon="6.47975">
        <ele>2086</ele>
        <time>2020-01-23T09:30:32Z</time>
      </trkpt>
      <trkpt lat="45.02745" lon="6.47978">
        <ele>2086</ele>
        <time>2020-01-23T09:30:35Z</time>
      </trkpt>
      <trkpt lat="45.02744" lon="6.47982">
        <ele>2086</ele>
        <time>2020-01-23T09:30:38Z</time>
      </trkpt>
      <trkpt lat="45.02747" lon="6.47989">
        <ele>2087</ele>
        <time>2020-01-23T09:30:49Z</time>
      </trkpt>
      <trkpt lat="45.02746" lon="6.48004">
        <ele>2090</ele>
        <time>2020-01-23T09:31:05Z</time>
      </trkpt>
      <trkpt lat="45.02746" lon="6.48007">
        <ele>2091</ele>
        <time>2020-01-23T09:31:10Z</time>
      </trkpt>
      <trkpt lat="45.02746" lon="6.4801">
        <ele>2090</ele>
        <time>2020-01-23T09:31:16Z</time>
      </trkpt>
      <trkpt lat="45.02748" lon="6.48014">
        <ele>2088</ele>
        <time>2020-01-23T09:31:22Z</time>
      </trkpt>
      <trkpt lat="45.0275" lon="6.48017">
        <ele>2087</ele>
        <time>2020-01-23T09:31:25Z</time>
      </trkpt>
      <trkpt lat="45.02752" lon="6.48019">
        <ele>2089</ele>
        <time>2020-01-23T09:31:31Z</time>
      </trkpt>
      <trkpt lat="45.02751" lon="6.48024">
        <ele>2093</ele>
        <time>2020-01-23T09:31:56Z</time>
      </trkpt>
      <trkpt lat="45.02752" lon="6.48028">
        <ele>2093</ele>
        <time>2020-01-23T09:32:17Z</time>
      </trkpt>
      <trkpt lat="45.02752" lon="6.48031">
        <ele>2093</ele>
        <time>2020-01-23T09:32:20Z</time>
      </trkpt>
      <trkpt lat="45.02751" lon="6.48033">
        <ele>2093</ele>
        <time>2020-01-23T09:32:24Z</time>
      </trkpt>
      <trkpt lat="45.0275" lon="6.48035">
        <ele>2095</ele>
        <time>2020-01-23T09:32:27Z</time>
      </trkpt>
      <trkpt lat="45.02748" lon="6.48037">
        <ele>2096</ele>
        <time>2020-01-23T09:32:31Z</time>
      </trkpt>
      <trkpt lat="45.02746" lon="6.48039">
        <ele>2098</ele>
        <time>2020-01-23T09:32:34Z</time>
      </trkpt>
      <trkpt lat="45.02745" lon="6.48041">
        <ele>2098</ele>
        <time>2020-01-23T09:32:37Z</time>
      </trkpt>
      <trkpt lat="45.02744" lon="6.48043">
        <ele>2099</ele>
        <time>2020-01-23T09:32:42Z</time>
      </trkpt>
      <trkpt lat="45.02746" lon="6.4805">
        <ele>2102</ele>
        <time>2020-01-23T09:32:51Z</time>
      </trkpt>
      <trkpt lat="45.02748" lon="6.48056">
        <ele>2103</ele>
        <time>2020-01-23T09:33:03Z</time>
      </trkpt>
      <trkpt lat="45.0275" lon="6.48058">
        <ele>2104</ele>
        <time>2020-01-23T09:33:06Z</time>
      </trkpt>
      <trkpt lat="45.02753" lon="6.48063">
        <ele>2106</ele>
        <time>2020-01-23T09:33:17Z</time>
      </trkpt>
      <trkpt lat="45.02767" lon="6.48066">
        <ele>2109</ele>
        <time>2020-01-23T09:33:44Z</time>
      </trkpt>
      <trkpt lat="45.02769" lon="6.48067">
        <ele>2109</ele>
        <time>2020-01-23T09:33:49Z</time>
      </trkpt>
      <trkpt lat="45.0277" lon="6.48069">
        <ele>2110</ele>
        <time>2020-01-23T09:33:55Z</time>
      </trkpt>
      <trkpt lat="45.02774" lon="6.48076">
        <ele>2113</ele>
        <time>2020-01-23T09:34:03Z</time>
      </trkpt>
      <trkpt lat="45.02777" lon="6.48076">
        <ele>2114</ele>
        <time>2020-01-23T09:34:06Z</time>
      </trkpt>
      <trkpt lat="45.02779" lon="6.48078">
        <ele>2116</ele>
        <time>2020-01-23T09:34:11Z</time>
      </trkpt>
      <trkpt lat="45.02777" lon="6.4808">
        <ele>2116</ele>
        <time>2020-01-23T09:34:16Z</time>
      </trkpt>
      <trkpt lat="45.02775" lon="6.48083">
        <ele>2117</ele>
        <time>2020-01-23T09:34:22Z</time>
      </trkpt>
      <trkpt lat="45.02773" lon="6.48088">
        <ele>2117</ele>
        <time>2020-01-23T09:34:30Z</time>
      </trkpt>
      <trkpt lat="45.02772" lon="6.48093">
        <ele>2117</ele>
        <time>2020-01-23T09:34:35Z</time>
      </trkpt>
      <trkpt lat="45.0277" lon="6.48095">
        <ele>2120</ele>
        <time>2020-01-23T09:34:40Z</time>
      </trkpt>
      <trkpt lat="45.0277" lon="6.48098">
        <ele>2120</ele>
        <time>2020-01-23T09:34:48Z</time>
      </trkpt>
      <trkpt lat="45.02769" lon="6.48107">
        <ele>2125</ele>
        <time>2020-01-23T09:34:54Z</time>
      </trkpt>
      <trkpt lat="45.02767" lon="6.48116">
        <ele>2130</ele>
        <time>2020-01-23T09:34:55Z</time>
      </trkpt>
      <trkpt lat="45.02772" lon="6.48124">
        <ele>2144</ele>
        <time>2020-01-23T09:34:57Z</time>
      </trkpt>
      <trkpt lat="45.02775" lon="6.48123">
        <ele>2146</ele>
        <time>2020-01-23T09:34:58Z</time>
      </trkpt>
      <trkpt lat="45.02775" lon="6.48118">
        <ele>2146</ele>
        <time>2020-01-23T09:35:00Z</time>
      </trkpt>
      <trkpt lat="45.02775" lon="6.48114">
        <ele>2142</ele>
        <time>2020-01-23T09:35:05Z</time>
      </trkpt>
      <trkpt lat="45.02774" lon="6.48115">
        <ele>2132</ele>
        <time>2020-01-23T09:35:24Z</time>
      </trkpt>
      <trkpt lat="45.02765" lon="6.48122">
        <ele>2129</ele>
        <time>2020-01-23T09:35:35Z</time>
      </trkpt>
      <trkpt lat="45.02767" lon="6.48126">
        <ele>2129</ele>
        <time>2020-01-23T09:35:42Z</time>
      </trkpt>
      <trkpt lat="45.02764" lon="6.48132">
        <ele>2128</ele>
        <time>2020-01-23T09:35:51Z</time>
      </trkpt>
      <trkpt lat="45.02763" lon="6.48134">
        <ele>2129</ele>
        <time>2020-01-23T09:35:53Z</time>
      </trkpt>
      <trkpt lat="45.02763" lon="6.48138">
        <ele>2130</ele>
        <time>2020-01-23T09:35:56Z</time>
      </trkpt>
      <trkpt lat="45.02762" lon="6.4814">
        <ele>2131</ele>
        <time>2020-01-23T09:35:59Z</time>
      </trkpt>
      <trkpt lat="45.0276" lon="6.48144">
        <ele>2133</ele>
        <time>2020-01-23T09:36:06Z</time>
      </trkpt>
      <trkpt lat="45.02759" lon="6.48145">
        <ele>2133</ele>
        <time>2020-01-23T09:36:08Z</time>
      </trkpt>
      <trkpt lat="45.02757" lon="6.48148">
        <ele>2133</ele>
        <time>2020-01-23T09:36:11Z</time>
      </trkpt>
      <trkpt lat="45.02755" lon="6.4815">
        <ele>2133</ele>
        <time>2020-01-23T09:36:16Z</time>
      </trkpt>
      <trkpt lat="45.02753" lon="6.48156">
        <ele>2133</ele>
        <time>2020-01-23T09:36:24Z</time>
      </trkpt>
      <trkpt lat="45.02752" lon="6.48158">
        <ele>2134</ele>
        <time>2020-01-23T09:36:27Z</time>
      </trkpt>
      <trkpt lat="45.02751" lon="6.48161">
        <ele>2134</ele>
        <time>2020-01-23T09:36:31Z</time>
      </trkpt>
      <trkpt lat="45.0275" lon="6.48163">
        <ele>2135</ele>
        <time>2020-01-23T09:36:34Z</time>
      </trkpt>
      <trkpt lat="45.0275" lon="6.48166">
        <ele>2135</ele>
        <time>2020-01-23T09:36:37Z</time>
      </trkpt>
      <trkpt lat="45.02752" lon="6.48169">
        <ele>2136</ele>
        <time>2020-01-23T09:36:43Z</time>
      </trkpt>
      <trkpt lat="45.02754" lon="6.48173">
        <ele>2138</ele>
        <time>2020-01-23T09:36:50Z</time>
      </trkpt>
      <trkpt lat="45.02756" lon="6.48175">
        <ele>2138</ele>
        <time>2020-01-23T09:36:53Z</time>
      </trkpt>
      <trkpt lat="45.02755" lon="6.48178">
        <ele>2139</ele>
        <time>2020-01-23T09:36:59Z</time>
      </trkpt>
      <trkpt lat="45.02757" lon="6.4818">
        <ele>2143</ele>
        <time>2020-01-23T09:37:04Z</time>
      </trkpt>
      <trkpt lat="45.02761" lon="6.48186">
        <ele>2144</ele>
        <time>2020-01-23T09:37:14Z</time>
      </trkpt>
      <trkpt lat="45.02762" lon="6.4819">
        <ele>2145</ele>
        <time>2020-01-23T09:37:19Z</time>
      </trkpt>
      <trkpt lat="45.0276" lon="6.48197">
        <ele>2147</ele>
        <time>2020-01-23T09:37:30Z</time>
      </trkpt>
      <trkpt lat="45.02764" lon="6.48202">
        <ele>2146</ele>
        <time>2020-01-23T09:37:35Z</time>
      </trkpt>
      <trkpt lat="45.02764" lon="6.4821">
        <ele>2147</ele>
        <time>2020-01-23T09:37:46Z</time>
      </trkpt>
      <trkpt lat="45.02767" lon="6.48215">
        <ele>2148</ele>
        <time>2020-01-23T09:37:52Z</time>
      </trkpt>
      <trkpt lat="45.02769" lon="6.48217">
        <ele>2149</ele>
        <time>2020-01-23T09:37:55Z</time>
      </trkpt>
      <trkpt lat="45.02772" lon="6.48219">
        <ele>2151</ele>
        <time>2020-01-23T09:38:01Z</time>
      </trkpt>
      <trkpt lat="45.02777" lon="6.4822">
        <ele>2153</ele>
        <time>2020-01-23T09:38:10Z</time>
      </trkpt>
      <trkpt lat="45.02779" lon="6.48223">
        <ele>2154</ele>
        <time>2020-01-23T09:38:15Z</time>
      </trkpt>
      <trkpt lat="45.02781" lon="6.48226">
        <ele>2154</ele>
        <time>2020-01-23T09:38:18Z</time>
      </trkpt>
      <trkpt lat="45.02784" lon="6.48225">
        <ele>2155</ele>
        <time>2020-01-23T09:38:22Z</time>
      </trkpt>
      <trkpt lat="45.02789" lon="6.4823">
        <ele>2157</ele>
        <time>2020-01-23T09:38:31Z</time>
      </trkpt>
      <trkpt lat="45.02795" lon="6.4823">
        <ele>2160</ele>
        <time>2020-01-23T09:38:44Z</time>
      </trkpt>
      <trkpt lat="45.02805" lon="6.48227">
        <ele>2161</ele>
        <time>2020-01-23T09:38:56Z</time>
      </trkpt>
      <trkpt lat="45.02808" lon="6.48228">
        <ele>2162</ele>
        <time>2020-01-23T09:38:59Z</time>
      </trkpt>
      <trkpt lat="45.0281" lon="6.48227">
        <ele>2162</ele>
        <time>2020-01-23T09:39:07Z</time>
      </trkpt>
      <trkpt lat="45.02812" lon="6.48228">
        <ele>2162</ele>
        <time>2020-01-23T09:39:11Z</time>
      </trkpt>
      <trkpt lat="45.02818" lon="6.48229">
        <ele>2163</ele>
        <time>2020-01-23T09:39:19Z</time>
      </trkpt>
      <trkpt lat="45.02823" lon="6.48233">
        <ele>2164</ele>
        <time>2020-01-23T09:39:28Z</time>
      </trkpt>
      <trkpt lat="45.02831" lon="6.48229">
        <ele>2166</ele>
        <time>2020-01-23T09:39:37Z</time>
      </trkpt>
      <trkpt lat="45.02833" lon="6.4823">
        <ele>2166</ele>
        <time>2020-01-23T09:39:42Z</time>
      </trkpt>
      <trkpt lat="45.02839" lon="6.48232">
        <ele>2168</ele>
        <time>2020-01-23T09:39:50Z</time>
      </trkpt>
      <trkpt lat="45.0284" lon="6.48235">
        <ele>2169</ele>
        <time>2020-01-23T09:39:56Z</time>
      </trkpt>
      <trkpt lat="45.02843" lon="6.48237">
        <ele>2171</ele>
        <time>2020-01-23T09:40:03Z</time>
      </trkpt>
      <trkpt lat="45.02844" lon="6.48241">
        <ele>2173</ele>
        <time>2020-01-23T09:40:10Z</time>
      </trkpt>
      <trkpt lat="45.02846" lon="6.48245">
        <ele>2173</ele>
        <time>2020-01-23T09:40:19Z</time>
      </trkpt>
      <trkpt lat="45.02846" lon="6.48249">
        <ele>2176</ele>
        <time>2020-01-23T09:40:24Z</time>
      </trkpt>
      <trkpt lat="45.02849" lon="6.48254">
        <ele>2176</ele>
        <time>2020-01-23T09:40:33Z</time>
      </trkpt>
      <trkpt lat="45.0285" lon="6.48259">
        <ele>2178</ele>
        <time>2020-01-23T09:40:38Z</time>
      </trkpt>
      <trkpt lat="45.02851" lon="6.48261">
        <ele>2181</ele>
        <time>2020-01-23T09:40:44Z</time>
      </trkpt>
      <trkpt lat="45.02854" lon="6.48262">
        <ele>2182</ele>
        <time>2020-01-23T09:40:47Z</time>
      </trkpt>
      <trkpt lat="45.02857" lon="6.48269">
        <ele>2185</ele>
        <time>2020-01-23T09:40:55Z</time>
      </trkpt>
      <trkpt lat="45.02858" lon="6.48271">
        <ele>2187</ele>
        <time>2020-01-23T09:40:59Z</time>
      </trkpt>
      <trkpt lat="45.02863" lon="6.48276">
        <ele>2188</ele>
        <time>2020-01-23T09:41:06Z</time>
      </trkpt>
      <trkpt lat="45.02865" lon="6.48278">
        <ele>2189</ele>
        <time>2020-01-23T09:41:08Z</time>
      </trkpt>
      <trkpt lat="45.02867" lon="6.48279">
        <ele>2190</ele>
        <time>2020-01-23T09:41:11Z</time>
      </trkpt>
      <trkpt lat="45.02871" lon="6.48284">
        <ele>2189</ele>
        <time>2020-01-23T09:41:20Z</time>
      </trkpt>
      <trkpt lat="45.02872" lon="6.48287">
        <ele>2190</ele>
        <time>2020-01-23T09:41:23Z</time>
      </trkpt>
      <trkpt lat="45.02873" lon="6.4829">
        <ele>2190</ele>
        <time>2020-01-23T09:41:26Z</time>
      </trkpt>
      <trkpt lat="45.02875" lon="6.48293">
        <ele>2190</ele>
        <time>2020-01-23T09:41:30Z</time>
      </trkpt>
      <trkpt lat="45.02879" lon="6.48298">
        <ele>2190</ele>
        <time>2020-01-23T09:41:37Z</time>
      </trkpt>
      <trkpt lat="45.02882" lon="6.483">
        <ele>2190</ele>
        <time>2020-01-23T09:41:40Z</time>
      </trkpt>
      <trkpt lat="45.02884" lon="6.48307">
        <ele>2191</ele>
        <time>2020-01-23T09:41:48Z</time>
      </trkpt>
      <trkpt lat="45.02886" lon="6.48309">
        <ele>2192</ele>
        <time>2020-01-23T09:41:53Z</time>
      </trkpt>
      <trkpt lat="45.02888" lon="6.48317">
        <ele>2193</ele>
        <time>2020-01-23T09:42:00Z</time>
      </trkpt>
      <trkpt lat="45.02889" lon="6.48321">
        <ele>2194</ele>
        <time>2020-01-23T09:42:03Z</time>
      </trkpt>
      <trkpt lat="45.02889" lon="6.48346">
        <ele>2193</ele>
        <time>2020-01-23T09:42:30Z</time>
      </trkpt>
      <trkpt lat="45.02888" lon="6.48353">
        <ele>2193</ele>
        <time>2020-01-23T09:42:36Z</time>
      </trkpt>
      <trkpt lat="45.02888" lon="6.48357">
        <ele>2193</ele>
        <time>2020-01-23T09:42:40Z</time>
      </trkpt>
      <trkpt lat="45.02885" lon="6.48367">
        <ele>2194</ele>
        <time>2020-01-23T09:42:49Z</time>
      </trkpt>
      <trkpt lat="45.02887" lon="6.48376">
        <ele>2198</ele>
        <time>2020-01-23T09:42:59Z</time>
      </trkpt>
      <trkpt lat="45.02887" lon="6.48379">
        <ele>2198</ele>
        <time>2020-01-23T09:43:03Z</time>
      </trkpt>
      <trkpt lat="45.02885" lon="6.48384">
        <ele>2199</ele>
        <time>2020-01-23T09:43:12Z</time>
      </trkpt>
      <trkpt lat="45.02885" lon="6.48393">
        <ele>2197</ele>
        <time>2020-01-23T09:43:19Z</time>
      </trkpt>
      <trkpt lat="45.02886" lon="6.48397">
        <ele>2198</ele>
        <time>2020-01-23T09:43:23Z</time>
      </trkpt>
      <trkpt lat="45.02887" lon="6.48401">
        <ele>2198</ele>
        <time>2020-01-23T09:43:28Z</time>
      </trkpt>
      <trkpt lat="45.02887" lon="6.48404">
        <ele>2198</ele>
        <time>2020-01-23T09:43:31Z</time>
      </trkpt>
      <trkpt lat="45.02889" lon="6.48411">
        <ele>2199</ele>
        <time>2020-01-23T09:43:38Z</time>
      </trkpt>
      <trkpt lat="45.02889" lon="6.48415">
        <ele>2199</ele>
        <time>2020-01-23T09:43:41Z</time>
      </trkpt>
      <trkpt lat="45.02891" lon="6.48418">
        <ele>2199</ele>
        <time>2020-01-23T09:43:45Z</time>
      </trkpt>
      <trkpt lat="45.02893" lon="6.48421">
        <ele>2199</ele>
        <time>2020-01-23T09:43:49Z</time>
      </trkpt>
      <trkpt lat="45.02893" lon="6.48429">
        <ele>2199</ele>
        <time>2020-01-23T09:43:56Z</time>
      </trkpt>
      <trkpt lat="45.02893" lon="6.48432">
        <ele>2199</ele>
        <time>2020-01-23T09:43:59Z</time>
      </trkpt>
      <trkpt lat="45.02894" lon="6.48435">
        <ele>2199</ele>
        <time>2020-01-23T09:44:02Z</time>
      </trkpt>
      <trkpt lat="45.02895" lon="6.48439">
        <ele>2199</ele>
        <time>2020-01-23T09:44:05Z</time>
      </trkpt>
      <trkpt lat="45.02897" lon="6.48442">
        <ele>2199</ele>
        <time>2020-01-23T09:44:08Z</time>
      </trkpt>
      <trkpt lat="45.02897" lon="6.48445">
        <ele>2200</ele>
        <time>2020-01-23T09:44:11Z</time>
      </trkpt>
      <trkpt lat="45.029" lon="6.48451">
        <ele>2201</ele>
        <time>2020-01-23T09:44:16Z</time>
      </trkpt>
      <trkpt lat="45.02901" lon="6.48454">
        <ele>2206</ele>
        <time>2020-01-23T09:44:19Z</time>
      </trkpt>
      <trkpt lat="45.029" lon="6.4846">
        <ele>2204</ele>
        <time>2020-01-23T09:44:22Z</time>
      </trkpt>
      <trkpt lat="45.029" lon="6.48464">
        <ele>2202</ele>
        <time>2020-01-23T09:44:27Z</time>
      </trkpt>
      <trkpt lat="45.02902" lon="6.48473">
        <ele>2204</ele>
        <time>2020-01-23T09:44:58Z</time>
      </trkpt>
      <trkpt lat="45.02903" lon="6.48477">
        <ele>2204</ele>
        <time>2020-01-23T09:45:01Z</time>
      </trkpt>
      <trkpt lat="45.02903" lon="6.48485">
        <ele>2203</ele>
        <time>2020-01-23T09:45:08Z</time>
      </trkpt>
      <trkpt lat="45.02912" lon="6.48499">
        <ele>2205</ele>
        <time>2020-01-23T09:45:35Z</time>
      </trkpt>
      <trkpt lat="45.02914" lon="6.48501">
        <ele>2204</ele>
        <time>2020-01-23T09:45:38Z</time>
      </trkpt>
      <trkpt lat="45.02916" lon="6.48503">
        <ele>2205</ele>
        <time>2020-01-23T09:45:42Z</time>
      </trkpt>
      <trkpt lat="45.02919" lon="6.48504">
        <ele>2205</ele>
        <time>2020-01-23T09:45:44Z</time>
      </trkpt>
      <trkpt lat="45.02922" lon="6.48507">
        <ele>2205</ele>
        <time>2020-01-23T09:45:47Z</time>
      </trkpt>
      <trkpt lat="45.02924" lon="6.4851">
        <ele>2205</ele>
        <time>2020-01-23T09:45:52Z</time>
      </trkpt>
      <trkpt lat="45.02926" lon="6.48512">
        <ele>2206</ele>
        <time>2020-01-23T09:45:55Z</time>
      </trkpt>
      <trkpt lat="45.02928" lon="6.48515">
        <ele>2206</ele>
        <time>2020-01-23T09:46:01Z</time>
      </trkpt>
      <trkpt lat="45.02933" lon="6.48518">
        <ele>2208</ele>
        <time>2020-01-23T09:46:08Z</time>
      </trkpt>
      <trkpt lat="45.02935" lon="6.48515">
        <ele>2207</ele>
        <time>2020-01-23T09:46:11Z</time>
      </trkpt>
      <trkpt lat="45.02938" lon="6.48517">
        <ele>2210</ele>
        <time>2020-01-23T09:46:37Z</time>
      </trkpt>
      <trkpt lat="45.02949" lon="6.48523">
        <ele>2211</ele>
        <time>2020-01-23T09:46:50Z</time>
      </trkpt>
      <trkpt lat="45.02951" lon="6.48524">
        <ele>2212</ele>
        <time>2020-01-23T09:46:55Z</time>
      </trkpt>
      <trkpt lat="45.02957" lon="6.48532">
        <ele>2213</ele>
        <time>2020-01-23T09:47:04Z</time>
      </trkpt>
      <trkpt lat="45.02996" lon="6.48528">
        <ele>2214</ele>
        <time>2020-01-23T09:47:37Z</time>
      </trkpt>
      <trkpt lat="45.02995" lon="6.48533">
        <ele>2216</ele>
        <time>2020-01-23T09:47:48Z</time>
      </trkpt>
      <trkpt lat="45.02999" lon="6.48535">
        <ele>2224</ele>
        <time>2020-01-23T09:47:51Z</time>
      </trkpt>
      <trkpt lat="45.03003" lon="6.48533">
        <ele>2225</ele>
        <time>2020-01-23T09:47:55Z</time>
      </trkpt>
      <trkpt lat="45.03008" lon="6.48529">
        <ele>2223</ele>
        <time>2020-01-23T09:50:18Z</time>
      </trkpt>
      <trkpt lat="45.03011" lon="6.4853">
        <ele>2223</ele>
        <time>2020-01-23T09:50:22Z</time>
      </trkpt>
      <trkpt lat="45.03031" lon="6.48525">
        <ele>2219</ele>
        <time>2020-01-23T09:50:45Z</time>
      </trkpt>
      <trkpt lat="45.03035" lon="6.48528">
        <ele>2225</ele>
        <time>2020-01-23T09:50:53Z</time>
      </trkpt>
      <trkpt lat="45.03041" lon="6.48529">
        <ele>2224</ele>
        <time>2020-01-23T09:50:59Z</time>
      </trkpt>
      <trkpt lat="45.03046" lon="6.48523">
        <ele>2223</ele>
        <time>2020-01-23T09:51:16Z</time>
      </trkpt>
      <trkpt lat="45.03052" lon="6.48515">
        <ele>2224</ele>
        <time>2020-01-23T09:51:31Z</time>
      </trkpt>
      <trkpt lat="45.03055" lon="6.48511">
        <ele>2227</ele>
        <time>2020-01-23T09:51:38Z</time>
      </trkpt>
      <trkpt lat="45.03058" lon="6.48512">
        <ele>2228</ele>
        <time>2020-01-23T09:51:43Z</time>
      </trkpt>
      <trkpt lat="45.03061" lon="6.48512">
        <ele>2229</ele>
        <time>2020-01-23T09:51:51Z</time>
      </trkpt>
      <trkpt lat="45.03064" lon="6.48514">
        <ele>2232</ele>
        <time>2020-01-23T09:51:55Z</time>
      </trkpt>
      <trkpt lat="45.03067" lon="6.48515">
        <ele>2232</ele>
        <time>2020-01-23T09:52:00Z</time>
      </trkpt>
      <trkpt lat="45.0307" lon="6.48515">
        <ele>2231</ele>
        <time>2020-01-23T09:52:05Z</time>
      </trkpt>
      <trkpt lat="45.03072" lon="6.48517">
        <ele>2232</ele>
        <time>2020-01-23T09:52:08Z</time>
      </trkpt>
      <trkpt lat="45.03082" lon="6.48521">
        <ele>2241</ele>
        <time>2020-01-23T09:52:44Z</time>
      </trkpt>
      <trkpt lat="45.03089" lon="6.4853">
        <ele>2242</ele>
        <time>2020-01-23T09:52:52Z</time>
      </trkpt>
      <trkpt lat="45.03095" lon="6.48537">
        <ele>2240</ele>
        <time>2020-01-23T09:52:59Z</time>
      </trkpt>
      <trkpt lat="45.03117" lon="6.48563">
        <ele>2238</ele>
        <time>2020-01-23T09:53:29Z</time>
      </trkpt>
      <trkpt lat="45.03122" lon="6.48569">
        <ele>2239</ele>
        <time>2020-01-23T09:53:35Z</time>
      </trkpt>
      <trkpt lat="45.03145" lon="6.48597">
        <ele>2241</ele>
        <time>2020-01-23T09:54:07Z</time>
      </trkpt>
      <trkpt lat="45.03162" lon="6.48611">
        <ele>2241</ele>
        <time>2020-01-23T09:54:33Z</time>
      </trkpt>
      <trkpt lat="45.0317" lon="6.4862">
        <ele>2242</ele>
        <time>2020-01-23T09:54:42Z</time>
      </trkpt>
      <trkpt lat="45.03176" lon="6.48624">
        <ele>2241</ele>
        <time>2020-01-23T09:54:48Z</time>
      </trkpt>
      <trkpt lat="45.03189" lon="6.48628">
        <ele>2241</ele>
        <time>2020-01-23T09:55:02Z</time>
      </trkpt>
      <trkpt lat="45.03192" lon="6.4863">
        <ele>2241</ele>
        <time>2020-01-23T09:55:05Z</time>
      </trkpt>
      <trkpt lat="45.03196" lon="6.48631">
        <ele>2241</ele>
        <time>2020-01-23T09:55:09Z</time>
      </trkpt>
      <trkpt lat="45.032" lon="6.48632">
        <ele>2241</ele>
        <time>2020-01-23T09:55:12Z</time>
      </trkpt>
      <trkpt lat="45.03202" lon="6.48635">
        <ele>2241</ele>
        <time>2020-01-23T09:55:15Z</time>
      </trkpt>
      <trkpt lat="45.03205" lon="6.48636">
        <ele>2242</ele>
        <time>2020-01-23T09:55:18Z</time>
      </trkpt>
      <trkpt lat="45.03225" lon="6.48644">
        <ele>2243</ele>
        <time>2020-01-23T09:55:44Z</time>
      </trkpt>
      <trkpt lat="45.03229" lon="6.48646">
        <ele>2242</ele>
        <time>2020-01-23T09:55:48Z</time>
      </trkpt>
      <trkpt lat="45.03236" lon="6.48647">
        <ele>2243</ele>
        <time>2020-01-23T09:55:55Z</time>
      </trkpt>
      <trkpt lat="45.0324" lon="6.48648">
        <ele>2243</ele>
        <time>2020-01-23T09:55:58Z</time>
      </trkpt>
      <trkpt lat="45.03247" lon="6.48644">
        <ele>2242</ele>
        <time>2020-01-23T09:56:08Z</time>
      </trkpt>
      <trkpt lat="45.03251" lon="6.48649">
        <ele>2242</ele>
        <time>2020-01-23T09:56:12Z</time>
      </trkpt>
      <trkpt lat="45.03254" lon="6.48652">
        <ele>2244</ele>
        <time>2020-01-23T09:56:17Z</time>
      </trkpt>
      <trkpt lat="45.03261" lon="6.48654">
        <ele>2244</ele>
        <time>2020-01-23T09:56:24Z</time>
      </trkpt>
      <trkpt lat="45.03268" lon="6.48657">
        <ele>2245</ele>
        <time>2020-01-23T09:56:32Z</time>
      </trkpt>
      <trkpt lat="45.03274" lon="6.4866">
        <ele>2247</ele>
        <time>2020-01-23T09:56:39Z</time>
      </trkpt>
      <trkpt lat="45.03277" lon="6.48662">
        <ele>2248</ele>
        <time>2020-01-23T09:56:44Z</time>
      </trkpt>
      <trkpt lat="45.03287" lon="6.48665">
        <ele>2249</ele>
        <time>2020-01-23T09:56:56Z</time>
      </trkpt>
      <trkpt lat="45.03289" lon="6.48666">
        <ele>2249</ele>
        <time>2020-01-23T09:56:59Z</time>
      </trkpt>
      <trkpt lat="45.03295" lon="6.4867">
        <ele>2256</ele>
        <time>2020-01-23T09:57:13Z</time>
      </trkpt>
      <trkpt lat="45.03303" lon="6.48674">
        <ele>2257</ele>
        <time>2020-01-23T09:57:21Z</time>
      </trkpt>
      <trkpt lat="45.03307" lon="6.48677">
        <ele>2258</ele>
        <time>2020-01-23T09:57:24Z</time>
      </trkpt>
      <trkpt lat="45.03307" lon="6.48681">
        <ele>2258</ele>
        <time>2020-01-23T09:57:30Z</time>
      </trkpt>
      <trkpt lat="45.03312" lon="6.48685">
        <ele>2257</ele>
        <time>2020-01-23T09:57:37Z</time>
      </trkpt>
      <trkpt lat="45.03318" lon="6.48688">
        <ele>2257</ele>
        <time>2020-01-23T09:57:45Z</time>
      </trkpt>
      <trkpt lat="45.03321" lon="6.48688">
        <ele>2258</ele>
        <time>2020-01-23T09:57:52Z</time>
      </trkpt>
      <trkpt lat="45.03323" lon="6.4869">
        <ele>2260</ele>
        <time>2020-01-23T09:57:59Z</time>
      </trkpt>
      <trkpt lat="45.03328" lon="6.48694">
        <ele>2259</ele>
        <time>2020-01-23T09:58:08Z</time>
      </trkpt>
      <trkpt lat="45.03329" lon="6.48698">
        <ele>2260</ele>
        <time>2020-01-23T09:58:13Z</time>
      </trkpt>
      <trkpt lat="45.03331" lon="6.487">
        <ele>2261</ele>
        <time>2020-01-23T09:58:17Z</time>
      </trkpt>
      <trkpt lat="45.03333" lon="6.48701">
        <ele>2263</ele>
        <time>2020-01-23T09:58:24Z</time>
      </trkpt>
      <trkpt lat="45.03341" lon="6.48711">
        <ele>2265</ele>
        <time>2020-01-23T09:58:39Z</time>
      </trkpt>
      <trkpt lat="45.03343" lon="6.48712">
        <ele>2266</ele>
        <time>2020-01-23T09:58:46Z</time>
      </trkpt>
      <trkpt lat="45.03346" lon="6.48718">
        <ele>2269</ele>
        <time>2020-01-23T09:58:55Z</time>
      </trkpt>
      <trkpt lat="45.03347" lon="6.4872">
        <ele>2270</ele>
        <time>2020-01-23T09:58:58Z</time>
      </trkpt>
      <trkpt lat="45.03351" lon="6.48725">
        <ele>2271</ele>
        <time>2020-01-23T09:59:07Z</time>
      </trkpt>
      <trkpt lat="45.03355" lon="6.48731">
        <ele>2274</ele>
        <time>2020-01-23T09:59:21Z</time>
      </trkpt>
      <trkpt lat="45.03357" lon="6.48733">
        <ele>2274</ele>
        <time>2020-01-23T09:59:25Z</time>
      </trkpt>
      <trkpt lat="45.03359" lon="6.48735">
        <ele>2273</ele>
        <time>2020-01-23T09:59:28Z</time>
      </trkpt>
      <trkpt lat="45.03361" lon="6.48737">
        <ele>2272</ele>
        <time>2020-01-23T09:59:32Z</time>
      </trkpt>
      <trkpt lat="45.03366" lon="6.48739">
        <ele>2271</ele>
        <time>2020-01-23T09:59:42Z</time>
      </trkpt>
      <trkpt lat="45.03368" lon="6.48741">
        <ele>2272</ele>
        <time>2020-01-23T09:59:47Z</time>
      </trkpt>
      <trkpt lat="45.03368" lon="6.48744">
        <ele>2272</ele>
        <time>2020-01-23T09:59:51Z</time>
      </trkpt>
      <trkpt lat="45.03372" lon="6.48747">
        <ele>2269</ele>
        <time>2020-01-23T10:00:01Z</time>
      </trkpt>
      <trkpt lat="45.03375" lon="6.4875">
        <ele>2274</ele>
        <time>2020-01-23T10:00:06Z</time>
      </trkpt>
      <trkpt lat="45.03374" lon="6.48754">
        <ele>2276</ele>
        <time>2020-01-23T10:00:09Z</time>
      </trkpt>
      <trkpt lat="45.03376" lon="6.48756">
        <ele>2278</ele>
        <time>2020-01-23T10:00:14Z</time>
      </trkpt>
      <trkpt lat="45.03378" lon="6.48757">
        <ele>2279</ele>
        <time>2020-01-23T10:00:19Z</time>
      </trkpt>
      <trkpt lat="45.0338" lon="6.48758">
        <ele>2280</ele>
        <time>2020-01-23T10:00:23Z</time>
      </trkpt>
      <trkpt lat="45.03381" lon="6.48761">
        <ele>2282</ele>
        <time>2020-01-23T10:00:29Z</time>
      </trkpt>
      <trkpt lat="45.03388" lon="6.48765">
        <ele>2283</ele>
        <time>2020-01-23T10:00:40Z</time>
      </trkpt>
      <trkpt lat="45.03389" lon="6.48766">
        <ele>2283</ele>
        <time>2020-01-23T10:00:44Z</time>
      </trkpt>
      <trkpt lat="45.03396" lon="6.48771">
        <ele>2287</ele>
        <time>2020-01-23T10:00:57Z</time>
      </trkpt>
      <trkpt lat="45.03399" lon="6.48773">
        <ele>2289</ele>
        <time>2020-01-23T10:01:04Z</time>
      </trkpt>
      <trkpt lat="45.03399" lon="6.48785">
        <ele>2294</ele>
        <time>2020-01-23T10:01:17Z</time>
      </trkpt>
      <trkpt lat="45.03403" lon="6.4878">
        <ele>2303</ele>
        <time>2020-01-23T10:01:19Z</time>
      </trkpt>
      <trkpt lat="45.03406" lon="6.4878">
        <ele>2298</ele>
        <time>2020-01-23T10:01:26Z</time>
      </trkpt>
      <trkpt lat="45.03409" lon="6.48781">
        <ele>2296</ele>
        <time>2020-01-23T10:01:29Z</time>
      </trkpt>
      <trkpt lat="45.03411" lon="6.48783">
        <ele>2296</ele>
        <time>2020-01-23T10:01:36Z</time>
      </trkpt>
      <trkpt lat="45.03418" lon="6.48782">
        <ele>2295</ele>
        <time>2020-01-23T10:01:50Z</time>
      </trkpt>
      <trkpt lat="45.0342" lon="6.48783">
        <ele>2294</ele>
        <time>2020-01-23T10:01:53Z</time>
      </trkpt>
      <trkpt lat="45.03422" lon="6.48785">
        <ele>2294</ele>
        <time>2020-01-23T10:01:56Z</time>
      </trkpt>
      <trkpt lat="45.03423" lon="6.48787">
        <ele>2295</ele>
        <time>2020-01-23T10:02:00Z</time>
      </trkpt>
      <trkpt lat="45.03425" lon="6.48787">
        <ele>2298</ele>
        <time>2020-01-23T10:02:04Z</time>
      </trkpt>
      <trkpt lat="45.03428" lon="6.48786">
        <ele>2299</ele>
        <time>2020-01-23T10:02:08Z</time>
      </trkpt>
      <trkpt lat="45.03429" lon="6.48788">
        <ele>2300</ele>
        <time>2020-01-23T10:02:12Z</time>
      </trkpt>
      <trkpt lat="45.03436" lon="6.48792">
        <ele>2300</ele>
        <time>2020-01-23T10:02:21Z</time>
      </trkpt>
      <trkpt lat="45.03438" lon="6.48794">
        <ele>2299</ele>
        <time>2020-01-23T10:02:25Z</time>
      </trkpt>
      <trkpt lat="45.03441" lon="6.48794">
        <ele>2300</ele>
        <time>2020-01-23T10:02:31Z</time>
      </trkpt>
      <trkpt lat="45.03443" lon="6.48797">
        <ele>2300</ele>
        <time>2020-01-23T10:02:34Z</time>
      </trkpt>
      <trkpt lat="45.03444" lon="6.48799">
        <ele>2300</ele>
        <time>2020-01-23T10:02:37Z</time>
      </trkpt>
      <trkpt lat="45.03448" lon="6.48799">
        <ele>2301</ele>
        <time>2020-01-23T10:02:42Z</time>
      </trkpt>
      <trkpt lat="45.03451" lon="6.488">
        <ele>2303</ele>
        <time>2020-01-23T10:02:47Z</time>
      </trkpt>
      <trkpt lat="45.03462" lon="6.48799">
        <ele>2303</ele>
        <time>2020-01-23T10:03:07Z</time>
      </trkpt>
      <trkpt lat="45.03464" lon="6.48798">
        <ele>2305</ele>
        <time>2020-01-23T10:03:12Z</time>
      </trkpt>
      <trkpt lat="45.03467" lon="6.48797">
        <ele>2305</ele>
        <time>2020-01-23T10:03:17Z</time>
      </trkpt>
      <trkpt lat="45.03469" lon="6.48795">
        <ele>2303</ele>
        <time>2020-01-23T10:03:21Z</time>
      </trkpt>
      <trkpt lat="45.03472" lon="6.4879">
        <ele>2303</ele>
        <time>2020-01-23T10:03:32Z</time>
      </trkpt>
      <trkpt lat="45.03473" lon="6.48786">
        <ele>2304</ele>
        <time>2020-01-23T10:03:38Z</time>
      </trkpt>
      <trkpt lat="45.03475" lon="6.48784">
        <ele>2305</ele>
        <time>2020-01-23T10:03:43Z</time>
      </trkpt>
      <trkpt lat="45.03475" lon="6.48781">
        <ele>2305</ele>
        <time>2020-01-23T10:03:48Z</time>
      </trkpt>
      <trkpt lat="45.0348" lon="6.48777">
        <ele>2307</ele>
        <time>2020-01-23T10:04:08Z</time>
      </trkpt>
      <trkpt lat="45.03482" lon="6.48777">
        <ele>2307</ele>
        <time>2020-01-23T10:04:12Z</time>
      </trkpt>
      <trkpt lat="45.03483" lon="6.48774">
        <ele>2307</ele>
        <time>2020-01-23T10:04:16Z</time>
      </trkpt>
      <trkpt lat="45.03485" lon="6.48772">
        <ele>2306</ele>
        <time>2020-01-23T10:04:18Z</time>
      </trkpt>
      <trkpt lat="45.03486" lon="6.48769">
        <ele>2306</ele>
        <time>2020-01-23T10:04:21Z</time>
      </trkpt>
      <trkpt lat="45.03489" lon="6.48769">
        <ele>2307</ele>
        <time>2020-01-23T10:04:27Z</time>
      </trkpt>
      <trkpt lat="45.03493" lon="6.48765">
        <ele>2308</ele>
        <time>2020-01-23T10:04:37Z</time>
      </trkpt>
      <trkpt lat="45.03495" lon="6.48766">
        <ele>2309</ele>
        <time>2020-01-23T10:04:41Z</time>
      </trkpt>
      <trkpt lat="45.03497" lon="6.48764">
        <ele>2310</ele>
        <time>2020-01-23T10:04:50Z</time>
      </trkpt>
      <trkpt lat="45.035" lon="6.48758">
        <ele>2313</ele>
        <time>2020-01-23T10:05:11Z</time>
      </trkpt>
      <trkpt lat="45.03503" lon="6.48759">
        <ele>2316</ele>
        <time>2020-01-23T10:05:18Z</time>
      </trkpt>
      <trkpt lat="45.03506" lon="6.48753">
        <ele>2320</ele>
        <time>2020-01-23T10:05:28Z</time>
      </trkpt>
      <trkpt lat="45.03509" lon="6.48752">
        <ele>2322</ele>
        <time>2020-01-23T10:05:33Z</time>
      </trkpt>
      <trkpt lat="45.03511" lon="6.48753">
        <ele>2323</ele>
        <time>2020-01-23T10:05:39Z</time>
      </trkpt>
      <trkpt lat="45.03516" lon="6.48752">
        <ele>2325</ele>
        <time>2020-01-23T10:05:49Z</time>
      </trkpt>
      <trkpt lat="45.03521" lon="6.48751">
        <ele>2326</ele>
        <time>2020-01-23T10:05:58Z</time>
      </trkpt>
      <trkpt lat="45.03523" lon="6.48752">
        <ele>2327</ele>
        <time>2020-01-23T10:06:09Z</time>
      </trkpt>
      <trkpt lat="45.03523" lon="6.48754">
        <ele>2327</ele>
        <time>2020-01-23T10:06:13Z</time>
      </trkpt>
      <trkpt lat="45.03524" lon="6.48759">
        <ele>2329</ele>
        <time>2020-01-23T10:06:20Z</time>
      </trkpt>
      <trkpt lat="45.03528" lon="6.48763">
        <ele>2331</ele>
        <time>2020-01-23T10:06:27Z</time>
      </trkpt>
      <trkpt lat="45.03528" lon="6.48768">
        <ele>2330</ele>
        <time>2020-01-23T10:06:36Z</time>
      </trkpt>
      <trkpt lat="45.03527" lon="6.48771">
        <ele>2331</ele>
        <time>2020-01-23T10:06:39Z</time>
      </trkpt>
      <trkpt lat="45.03529" lon="6.48783">
        <ele>2336</ele>
        <time>2020-01-23T10:07:00Z</time>
      </trkpt>
      <trkpt lat="45.03531" lon="6.48785">
        <ele>2337</ele>
        <time>2020-01-23T10:07:04Z</time>
      </trkpt>
      <trkpt lat="45.03533" lon="6.48795">
        <ele>2341</ele>
        <time>2020-01-23T10:07:17Z</time>
      </trkpt>
      <trkpt lat="45.03532" lon="6.48798">
        <ele>2342</ele>
        <time>2020-01-23T10:07:22Z</time>
      </trkpt>
      <trkpt lat="45.03532" lon="6.48802">
        <ele>2344</ele>
        <time>2020-01-23T10:07:27Z</time>
      </trkpt>
      <trkpt lat="45.03532" lon="6.48805">
        <ele>2344</ele>
        <time>2020-01-23T10:07:32Z</time>
      </trkpt>
      <trkpt lat="45.03532" lon="6.48807">
        <ele>2344</ele>
        <time>2020-01-23T10:07:34Z</time>
      </trkpt>
      <trkpt lat="45.03534" lon="6.4881">
        <ele>2342</ele>
        <time>2020-01-23T10:07:37Z</time>
      </trkpt>
      <trkpt lat="45.03534" lon="6.48813">
        <ele>2340</ele>
        <time>2020-01-23T10:07:44Z</time>
      </trkpt>
      <trkpt lat="45.03531" lon="6.4883">
        <ele>2345</ele>
        <time>2020-01-23T10:08:07Z</time>
      </trkpt>
      <trkpt lat="45.03531" lon="6.48838">
        <ele>2344</ele>
        <time>2020-01-23T10:08:21Z</time>
      </trkpt>
      <trkpt lat="45.03532" lon="6.48844">
        <ele>2345</ele>
        <time>2020-01-23T10:08:27Z</time>
      </trkpt>
      <trkpt lat="45.03531" lon="6.48847">
        <ele>2348</ele>
        <time>2020-01-23T10:08:35Z</time>
      </trkpt>
      <trkpt lat="45.03534" lon="6.48869">
        <ele>2357</ele>
        <time>2020-01-23T10:09:07Z</time>
      </trkpt>
      <trkpt lat="45.03535" lon="6.48873">
        <ele>2358</ele>
        <time>2020-01-23T10:09:13Z</time>
      </trkpt>
      <trkpt lat="45.03536" lon="6.48876">
        <ele>2358</ele>
        <time>2020-01-23T10:09:16Z</time>
      </trkpt>
      <trkpt lat="45.03537" lon="6.48881">
        <ele>2359</ele>
        <time>2020-01-23T10:09:24Z</time>
      </trkpt>
      <trkpt lat="45.03539" lon="6.48883">
        <ele>2360</ele>
        <time>2020-01-23T10:09:27Z</time>
      </trkpt>
      <trkpt lat="45.03537" lon="6.48886">
        <ele>2360</ele>
        <time>2020-01-23T10:09:33Z</time>
      </trkpt>
      <trkpt lat="45.03538" lon="6.48889">
        <ele>2361</ele>
        <time>2020-01-23T10:09:38Z</time>
      </trkpt>
      <trkpt lat="45.03539" lon="6.48891">
        <ele>2363</ele>
        <time>2020-01-23T10:09:43Z</time>
      </trkpt>
      <trkpt lat="45.03539" lon="6.48894">
        <ele>2364</ele>
        <time>2020-01-23T10:09:48Z</time>
      </trkpt>
      <trkpt lat="45.03539" lon="6.48897">
        <ele>2364</ele>
        <time>2020-01-23T10:09:51Z</time>
      </trkpt>
      <trkpt lat="45.03539" lon="6.48899">
        <ele>2364</ele>
        <time>2020-01-23T10:09:55Z</time>
      </trkpt>
      <trkpt lat="45.03541" lon="6.48901">
        <ele>2364</ele>
        <time>2020-01-23T10:09:59Z</time>
      </trkpt>
      <trkpt lat="45.03541" lon="6.48904">
        <ele>2364</ele>
        <time>2020-01-23T10:10:03Z</time>
      </trkpt>
      <trkpt lat="45.03541" lon="6.4891">
        <ele>2367</ele>
        <time>2020-01-23T10:10:11Z</time>
      </trkpt>
      <trkpt lat="45.03542" lon="6.48913">
        <ele>2367</ele>
        <time>2020-01-23T10:10:18Z</time>
      </trkpt>
      <trkpt lat="45.03541" lon="6.48916">
        <ele>2367</ele>
        <time>2020-01-23T10:10:23Z</time>
      </trkpt>
      <trkpt lat="45.0354" lon="6.4892">
        <ele>2370</ele>
        <time>2020-01-23T10:10:28Z</time>
      </trkpt>
      <trkpt lat="45.0354" lon="6.48924">
        <ele>2370</ele>
        <time>2020-01-23T10:10:35Z</time>
      </trkpt>
      <trkpt lat="45.0354" lon="6.48936">
        <ele>2375</ele>
        <time>2020-01-23T10:10:52Z</time>
      </trkpt>
      <trkpt lat="45.03539" lon="6.48939">
        <ele>2375</ele>
        <time>2020-01-23T10:10:55Z</time>
      </trkpt>
      <trkpt lat="45.03541" lon="6.4894">
        <ele>2376</ele>
        <time>2020-01-23T10:11:02Z</time>
      </trkpt>
      <trkpt lat="45.0354" lon="6.48946">
        <ele>2377</ele>
        <time>2020-01-23T10:11:06Z</time>
      </trkpt>
      <trkpt lat="45.03543" lon="6.48946">
        <ele>2382</ele>
        <time>2020-01-23T10:11:10Z</time>
      </trkpt>
      <trkpt lat="45.03548" lon="6.48944">
        <ele>2382</ele>
        <time>2020-01-23T10:11:16Z</time>
      </trkpt>
      <trkpt lat="45.03548" lon="6.48941">
        <ele>2382</ele>
        <time>2020-01-23T10:11:19Z</time>
      </trkpt>
      <trkpt lat="45.0355" lon="6.48939">
        <ele>2382</ele>
        <time>2020-01-23T10:11:26Z</time>
      </trkpt>
      <trkpt lat="45.03568" lon="6.48948">
        <ele>2387</ele>
        <time>2020-01-23T10:12:00Z</time>
      </trkpt>
      <trkpt lat="45.03572" lon="6.48951">
        <ele>2387</ele>
        <time>2020-01-23T10:12:07Z</time>
      </trkpt>
      <trkpt lat="45.03574" lon="6.48952">
        <ele>2387</ele>
        <time>2020-01-23T10:12:13Z</time>
      </trkpt>
      <trkpt lat="45.03576" lon="6.48956">
        <ele>2388</ele>
        <time>2020-01-23T10:12:17Z</time>
      </trkpt>
      <trkpt lat="45.03582" lon="6.48956">
        <ele>2388</ele>
        <time>2020-01-23T10:12:27Z</time>
      </trkpt>
      <trkpt lat="45.03591" lon="6.48963">
        <ele>2392</ele>
        <time>2020-01-23T10:12:47Z</time>
      </trkpt>
      <trkpt lat="45.03606" lon="6.48972">
        <ele>2400</ele>
        <time>2020-01-23T10:13:18Z</time>
      </trkpt>
      <trkpt lat="45.0361" lon="6.48976">
        <ele>2401</ele>
        <time>2020-01-23T10:13:24Z</time>
      </trkpt>
      <trkpt lat="45.03619" lon="6.48979">
        <ele>2404</ele>
        <time>2020-01-23T10:13:48Z</time>
      </trkpt>
      <trkpt lat="45.0363" lon="6.48985">
        <ele>2409</ele>
        <time>2020-01-23T10:14:08Z</time>
      </trkpt>
      <trkpt lat="45.03632" lon="6.48986">
        <ele>2409</ele>
        <time>2020-01-23T10:14:11Z</time>
      </trkpt>
      <trkpt lat="45.03634" lon="6.48989">
        <ele>2410</ele>
        <time>2020-01-23T10:14:14Z</time>
      </trkpt>
      <trkpt lat="45.03636" lon="6.48989">
        <ele>2410</ele>
        <time>2020-01-23T10:14:19Z</time>
      </trkpt>
      <trkpt lat="45.03639" lon="6.4899">
        <ele>2410</ele>
        <time>2020-01-23T10:14:23Z</time>
      </trkpt>
      <trkpt lat="45.03643" lon="6.48995">
        <ele>2410</ele>
        <time>2020-01-23T10:14:31Z</time>
      </trkpt>
      <trkpt lat="45.03651" lon="6.48996">
        <ele>2413</ele>
        <time>2020-01-23T10:14:45Z</time>
      </trkpt>
      <trkpt lat="45.03653" lon="6.48995">
        <ele>2412</ele>
        <time>2020-01-23T10:14:49Z</time>
      </trkpt>
      <trkpt lat="45.03654" lon="6.48996">
        <ele>2413</ele>
        <time>2020-01-23T10:14:52Z</time>
      </trkpt>
      <trkpt lat="45.03657" lon="6.48995">
        <ele>2414</ele>
        <time>2020-01-23T10:14:56Z</time>
      </trkpt>
      <trkpt lat="45.03659" lon="6.48993">
        <ele>2415</ele>
        <time>2020-01-23T10:15:00Z</time>
      </trkpt>
      <trkpt lat="45.03661" lon="6.48992">
        <ele>2416</ele>
        <time>2020-01-23T10:15:05Z</time>
      </trkpt>
      <trkpt lat="45.03663" lon="6.48992">
        <ele>2416</ele>
        <time>2020-01-23T10:15:08Z</time>
      </trkpt>
      <trkpt lat="45.03663" lon="6.4899">
        <ele>2416</ele>
        <time>2020-01-23T10:18:48Z</time>
      </trkpt>
      <trkpt lat="45.03665" lon="6.48994">
        <ele>2416</ele>
        <time>2020-01-23T10:20:34Z</time>
      </trkpt>
      <trkpt lat="45.03667" lon="6.48995">
        <ele>2416</ele>
        <time>2020-01-23T10:20:36Z</time>
      </trkpt>
      <trkpt lat="45.03671" lon="6.48996">
        <ele>2416</ele>
        <time>2020-01-23T10:20:44Z</time>
      </trkpt>
      <trkpt lat="45.03674" lon="6.48998">
        <ele>2419</ele>
        <time>2020-01-23T10:20:49Z</time>
      </trkpt>
      <trkpt lat="45.03675" lon="6.49001">
        <ele>2420</ele>
        <time>2020-01-23T10:20:52Z</time>
      </trkpt>
      <trkpt lat="45.03679" lon="6.49005">
        <ele>2422</ele>
        <time>2020-01-23T10:21:03Z</time>
      </trkpt>
      <trkpt lat="45.03681" lon="6.49008">
        <ele>2422</ele>
        <time>2020-01-23T10:21:08Z</time>
      </trkpt>
      <trkpt lat="45.03685" lon="6.49008">
        <ele>2421</ele>
        <time>2020-01-23T10:21:16Z</time>
      </trkpt>
      <trkpt lat="45.03687" lon="6.4901">
        <ele>2423</ele>
        <time>2020-01-23T10:21:21Z</time>
      </trkpt>
      <trkpt lat="45.03688" lon="6.49012">
        <ele>2423</ele>
        <time>2020-01-23T10:21:25Z</time>
      </trkpt>
      <trkpt lat="45.03693" lon="6.49016">
        <ele>2424</ele>
        <time>2020-01-23T10:21:34Z</time>
      </trkpt>
      <trkpt lat="45.03697" lon="6.49016">
        <ele>2422</ele>
        <time>2020-01-23T10:21:43Z</time>
      </trkpt>
      <trkpt lat="45.03699" lon="6.49019">
        <ele>2426</ele>
        <time>2020-01-23T10:21:48Z</time>
      </trkpt>
      <trkpt lat="45.03701" lon="6.49019">
        <ele>2425</ele>
        <time>2020-01-23T10:21:51Z</time>
      </trkpt>
      <trkpt lat="45.03703" lon="6.49022">
        <ele>2426</ele>
        <time>2020-01-23T10:22:00Z</time>
      </trkpt>
      <trkpt lat="45.03714" lon="6.49026">
        <ele>2429</ele>
        <time>2020-01-23T10:22:22Z</time>
      </trkpt>
      <trkpt lat="45.03717" lon="6.49027">
        <ele>2430</ele>
        <time>2020-01-23T10:22:27Z</time>
      </trkpt>
      <trkpt lat="45.03719" lon="6.49027">
        <ele>2430</ele>
        <time>2020-01-23T10:22:30Z</time>
      </trkpt>
      <trkpt lat="45.03721" lon="6.49029">
        <ele>2431</ele>
        <time>2020-01-23T10:22:33Z</time>
      </trkpt>
      <trkpt lat="45.03723" lon="6.4903">
        <ele>2431</ele>
        <time>2020-01-23T10:22:37Z</time>
      </trkpt>
      <trkpt lat="45.03725" lon="6.49029">
        <ele>2432</ele>
        <time>2020-01-23T10:22:42Z</time>
      </trkpt>
      <trkpt lat="45.03736" lon="6.49036">
        <ele>2437</ele>
        <time>2020-01-23T10:23:04Z</time>
      </trkpt>
      <trkpt lat="45.03738" lon="6.49039">
        <ele>2438</ele>
        <time>2020-01-23T10:23:08Z</time>
      </trkpt>
      <trkpt lat="45.0374" lon="6.49038">
        <ele>2438</ele>
        <time>2020-01-23T10:23:12Z</time>
      </trkpt>
      <trkpt lat="45.0375" lon="6.49048">
        <ele>2442</ele>
        <time>2020-01-23T10:23:35Z</time>
      </trkpt>
      <trkpt lat="45.03752" lon="6.49049">
        <ele>2442</ele>
        <time>2020-01-23T10:23:39Z</time>
      </trkpt>
      <trkpt lat="45.03754" lon="6.49052">
        <ele>2443</ele>
        <time>2020-01-23T10:23:43Z</time>
      </trkpt>
      <trkpt lat="45.03756" lon="6.49054">
        <ele>2445</ele>
        <time>2020-01-23T10:23:48Z</time>
      </trkpt>
      <trkpt lat="45.03761" lon="6.49059">
        <ele>2446</ele>
        <time>2020-01-23T10:23:58Z</time>
      </trkpt>
      <trkpt lat="45.03762" lon="6.4906">
        <ele>2447</ele>
        <time>2020-01-23T10:24:01Z</time>
      </trkpt>
      <trkpt lat="45.03768" lon="6.49065">
        <ele>2446</ele>
        <time>2020-01-23T10:24:13Z</time>
      </trkpt>
      <trkpt lat="45.0377" lon="6.49067">
        <ele>2447</ele>
        <time>2020-01-23T10:24:20Z</time>
      </trkpt>
      <trkpt lat="45.03772" lon="6.49067">
        <ele>2447</ele>
        <time>2020-01-23T10:24:26Z</time>
      </trkpt>
      <trkpt lat="45.03776" lon="6.49077">
        <ele>2455</ele>
        <time>2020-01-23T10:24:36Z</time>
      </trkpt>
      <trkpt lat="45.03778" lon="6.49074">
        <ele>2455</ele>
        <time>2020-01-23T10:24:40Z</time>
      </trkpt>
      <trkpt lat="45.03782" lon="6.49078">
        <ele>2454</ele>
        <time>2020-01-23T10:24:48Z</time>
      </trkpt>
      <trkpt lat="45.03784" lon="6.4908">
        <ele>2455</ele>
        <time>2020-01-23T10:24:52Z</time>
      </trkpt>
      <trkpt lat="45.0379" lon="6.49085">
        <ele>2457</ele>
        <time>2020-01-23T10:25:05Z</time>
      </trkpt>
      <trkpt lat="45.03795" lon="6.49089">
        <ele>2455</ele>
        <time>2020-01-23T10:25:13Z</time>
      </trkpt>
      <trkpt lat="45.03799" lon="6.49093">
        <ele>2457</ele>
        <time>2020-01-23T10:25:34Z</time>
      </trkpt>
      <trkpt lat="45.03802" lon="6.49093">
        <ele>2457</ele>
        <time>2020-01-23T10:25:40Z</time>
      </trkpt>
      <trkpt lat="45.03809" lon="6.49099">
        <ele>2459</ele>
        <time>2020-01-23T10:25:53Z</time>
      </trkpt>
      <trkpt lat="45.03813" lon="6.491">
        <ele>2460</ele>
        <time>2020-01-23T10:26:02Z</time>
      </trkpt>
      <trkpt lat="45.03819" lon="6.49107">
        <ele>2461</ele>
        <time>2020-01-23T10:26:16Z</time>
      </trkpt>
      <trkpt lat="45.03829" lon="6.49114">
        <ele>2462</ele>
        <time>2020-01-23T10:26:42Z</time>
      </trkpt>
      <trkpt lat="45.03833" lon="6.49118">
        <ele>2464</ele>
        <time>2020-01-23T10:26:51Z</time>
      </trkpt>
      <trkpt lat="45.03834" lon="6.4912">
        <ele>2464</ele>
        <time>2020-01-23T10:26:55Z</time>
      </trkpt>
      <trkpt lat="45.03836" lon="6.49119">
        <ele>2465</ele>
        <time>2020-01-23T10:27:00Z</time>
      </trkpt>
      <trkpt lat="45.03838" lon="6.4912">
        <ele>2465</ele>
        <time>2020-01-23T10:27:13Z</time>
      </trkpt>
      <trkpt lat="45.03839" lon="6.49117">
        <ele>2464</ele>
        <time>2020-01-23T10:27:35Z</time>
      </trkpt>
      <trkpt lat="45.0384" lon="6.49115">
        <ele>2464</ele>
        <time>2020-01-23T10:29:31Z</time>
      </trkpt>
      <trkpt lat="45.03849" lon="6.49124">
        <ele>2470</ele>
        <time>2020-01-23T10:29:52Z</time>
      </trkpt>
      <trkpt lat="45.03853" lon="6.49126">
        <ele>2473</ele>
        <time>2020-01-23T10:29:59Z</time>
      </trkpt>
      <trkpt lat="45.03856" lon="6.49127">
        <ele>2474</ele>
        <time>2020-01-23T10:30:04Z</time>
      </trkpt>
      <trkpt lat="45.0386" lon="6.49124">
        <ele>2477</ele>
        <time>2020-01-23T10:30:14Z</time>
      </trkpt>
      <trkpt lat="45.03864" lon="6.49124">
        <ele>2479</ele>
        <time>2020-01-23T10:30:25Z</time>
      </trkpt>
      <trkpt lat="45.03866" lon="6.49124">
        <ele>2479</ele>
        <time>2020-01-23T10:30:28Z</time>
      </trkpt>
      <trkpt lat="45.03868" lon="6.49123">
        <ele>2479</ele>
        <time>2020-01-23T10:30:32Z</time>
      </trkpt>
      <trkpt lat="45.0387" lon="6.49121">
        <ele>2480</ele>
        <time>2020-01-23T10:30:35Z</time>
      </trkpt>
      <trkpt lat="45.03873" lon="6.49123">
        <ele>2481</ele>
        <time>2020-01-23T10:30:43Z</time>
      </trkpt>
      <trkpt lat="45.03875" lon="6.49123">
        <ele>2481</ele>
        <time>2020-01-23T10:30:47Z</time>
      </trkpt>
      <trkpt lat="45.03877" lon="6.49125">
        <ele>2483</ele>
        <time>2020-01-23T10:30:52Z</time>
      </trkpt>
      <trkpt lat="45.03879" lon="6.49125">
        <ele>2483</ele>
        <time>2020-01-23T10:30:56Z</time>
      </trkpt>
      <trkpt lat="45.03881" lon="6.49123">
        <ele>2484</ele>
        <time>2020-01-23T10:31:00Z</time>
      </trkpt>
      <trkpt lat="45.03886" lon="6.49125">
        <ele>2486</ele>
        <time>2020-01-23T10:31:12Z</time>
      </trkpt>
      <trkpt lat="45.03887" lon="6.49123">
        <ele>2487</ele>
        <time>2020-01-23T10:31:17Z</time>
      </trkpt>
      <trkpt lat="45.03889" lon="6.49124">
        <ele>2488</ele>
        <time>2020-01-23T10:31:22Z</time>
      </trkpt>
      <trkpt lat="45.03892" lon="6.49125">
        <ele>2488</ele>
        <time>2020-01-23T10:31:26Z</time>
      </trkpt>
      <trkpt lat="45.03894" lon="6.49126">
        <ele>2489</ele>
        <time>2020-01-23T10:31:31Z</time>
      </trkpt>
      <trkpt lat="45.03898" lon="6.49125">
        <ele>2491</ele>
        <time>2020-01-23T10:31:39Z</time>
      </trkpt>
      <trkpt lat="45.03899" lon="6.49127">
        <ele>2492</ele>
        <time>2020-01-23T10:31:43Z</time>
      </trkpt>
      <trkpt lat="45.03901" lon="6.49127">
        <ele>2492</ele>
        <time>2020-01-23T10:31:48Z</time>
      </trkpt>
      <trkpt lat="45.03904" lon="6.49126">
        <ele>2493</ele>
        <time>2020-01-23T10:31:52Z</time>
      </trkpt>
      <trkpt lat="45.03906" lon="6.49124">
        <ele>2496</ele>
        <time>2020-01-23T10:32:00Z</time>
      </trkpt>
      <trkpt lat="45.03909" lon="6.49124">
        <ele>2496</ele>
        <time>2020-01-23T10:32:03Z</time>
      </trkpt>
      <trkpt lat="45.03911" lon="6.49125">
        <ele>2495</ele>
        <time>2020-01-23T10:32:07Z</time>
      </trkpt>
      <trkpt lat="45.03913" lon="6.49125">
        <ele>2495</ele>
        <time>2020-01-23T10:32:11Z</time>
      </trkpt>
      <trkpt lat="45.03918" lon="6.49128">
        <ele>2497</ele>
        <time>2020-01-23T10:32:25Z</time>
      </trkpt>
      <trkpt lat="45.0392" lon="6.49129">
        <ele>2499</ele>
        <time>2020-01-23T10:32:30Z</time>
      </trkpt>
      <trkpt lat="45.03922" lon="6.49131">
        <ele>2500</ele>
        <time>2020-01-23T10:32:35Z</time>
      </trkpt>
      <trkpt lat="45.03931" lon="6.49134">
        <ele>2499</ele>
        <time>2020-01-23T10:32:59Z</time>
      </trkpt>
      <trkpt lat="45.03933" lon="6.49136">
        <ele>2501</ele>
        <time>2020-01-23T10:33:04Z</time>
      </trkpt>
      <trkpt lat="45.03944" lon="6.49138">
        <ele>2508</ele>
        <time>2020-01-23T10:33:32Z</time>
      </trkpt>
      <trkpt lat="45.03946" lon="6.49137">
        <ele>2508</ele>
        <time>2020-01-23T10:33:40Z</time>
      </trkpt>
      <trkpt lat="45.0395" lon="6.49137">
        <ele>2509</ele>
        <time>2020-01-23T10:33:48Z</time>
      </trkpt>
      <trkpt lat="45.03951" lon="6.49136">
        <ele>2509</ele>
        <time>2020-01-23T10:33:52Z</time>
      </trkpt>
      <trkpt lat="45.03953" lon="6.49136">
        <ele>2509</ele>
        <time>2020-01-23T10:33:55Z</time>
      </trkpt>
      <trkpt lat="45.03955" lon="6.49135">
        <ele>2510</ele>
        <time>2020-01-23T10:34:00Z</time>
      </trkpt>
      <trkpt lat="45.03959" lon="6.49134">
        <ele>2511</ele>
        <time>2020-01-23T10:34:09Z</time>
      </trkpt>
      <trkpt lat="45.03962" lon="6.49131">
        <ele>2504</ele>
        <time>2020-01-23T10:34:17Z</time>
      </trkpt>
      <trkpt lat="45.03968" lon="6.49134">
        <ele>2510</ele>
        <time>2020-01-23T10:34:40Z</time>
      </trkpt>
      <trkpt lat="45.0397" lon="6.49132">
        <ele>2511</ele>
        <time>2020-01-23T10:34:44Z</time>
      </trkpt>
      <trkpt lat="45.03979" lon="6.49135">
        <ele>2516</ele>
        <time>2020-01-23T10:34:59Z</time>
      </trkpt>
      <trkpt lat="45.0398" lon="6.49133">
        <ele>2516</ele>
        <time>2020-01-23T10:35:02Z</time>
      </trkpt>
      <trkpt lat="45.03982" lon="6.49133">
        <ele>2517</ele>
        <time>2020-01-23T10:35:07Z</time>
      </trkpt>
      <trkpt lat="45.03984" lon="6.49131">
        <ele>2517</ele>
        <time>2020-01-23T10:35:12Z</time>
      </trkpt>
      <trkpt lat="45.03986" lon="6.4913">
        <ele>2518</ele>
        <time>2020-01-23T10:35:16Z</time>
      </trkpt>
      <trkpt lat="45.03992" lon="6.4913">
        <ele>2520</ele>
        <time>2020-01-23T10:35:27Z</time>
      </trkpt>
      <trkpt lat="45.03992" lon="6.4913">
        <ele>2521</ele>
        <time>2020-01-23T10:35:43Z</time>
      </trkpt>
      <trkpt lat="45.03991" lon="6.49138">
        <ele>2525</ele>
        <time>2020-01-23T10:35:55Z</time>
      </trkpt>
      <trkpt lat="45.03989" lon="6.49141">
        <ele>2526</ele>
        <time>2020-01-23T10:36:00Z</time>
      </trkpt>
      <trkpt lat="45.03988" lon="6.49142">
        <ele>2527</ele>
        <time>2020-01-23T10:36:05Z</time>
      </trkpt>
      <trkpt lat="45.03983" lon="6.49153">
        <ele>2531</ele>
        <time>2020-01-23T10:36:41Z</time>
      </trkpt>
      <trkpt lat="45.03985" lon="6.49156">
        <ele>2532</ele>
        <time>2020-01-23T10:36:48Z</time>
      </trkpt>
      <trkpt lat="45.03987" lon="6.49157">
        <ele>2532</ele>
        <time>2020-01-23T10:36:53Z</time>
      </trkpt>
      <trkpt lat="45.03989" lon="6.49157">
        <ele>2532</ele>
        <time>2020-01-23T10:36:57Z</time>
      </trkpt>
      <trkpt lat="45.03991" lon="6.49156">
        <ele>2532</ele>
        <time>2020-01-23T10:37:02Z</time>
      </trkpt>
      <trkpt lat="45.03995" lon="6.49159">
        <ele>2534</ele>
        <time>2020-01-23T10:37:11Z</time>
      </trkpt>
      <trkpt lat="45.03997" lon="6.49158">
        <ele>2536</ele>
        <time>2020-01-23T10:37:17Z</time>
      </trkpt>
      <trkpt lat="45.03999" lon="6.49158">
        <ele>2537</ele>
        <time>2020-01-23T10:37:22Z</time>
      </trkpt>
      <trkpt lat="45.04002" lon="6.49159">
        <ele>2539</ele>
        <time>2020-01-23T10:37:27Z</time>
      </trkpt>
      <trkpt lat="45.04004" lon="6.49159">
        <ele>2539</ele>
        <time>2020-01-23T10:37:33Z</time>
      </trkpt>
      <trkpt lat="45.04006" lon="6.49159">
        <ele>2541</ele>
        <time>2020-01-23T10:37:38Z</time>
      </trkpt>
      <trkpt lat="45.04008" lon="6.49158">
        <ele>2541</ele>
        <time>2020-01-23T10:37:43Z</time>
      </trkpt>
      <trkpt lat="45.04013" lon="6.49156">
        <ele>2542</ele>
        <time>2020-01-23T10:37:56Z</time>
      </trkpt>
      <trkpt lat="45.04015" lon="6.49157">
        <ele>2543</ele>
        <time>2020-01-23T10:38:00Z</time>
      </trkpt>
      <trkpt lat="45.04017" lon="6.49156">
        <ele>2545</ele>
        <time>2020-01-23T10:38:04Z</time>
      </trkpt>
      <trkpt lat="45.0402" lon="6.49157">
        <ele>2546</ele>
        <time>2020-01-23T10:38:10Z</time>
      </trkpt>
      <trkpt lat="45.04025" lon="6.49158">
        <ele>2548</ele>
        <time>2020-01-23T10:38:23Z</time>
      </trkpt>
      <trkpt lat="45.04027" lon="6.49158">
        <ele>2549</ele>
        <time>2020-01-23T10:38:27Z</time>
      </trkpt>
      <trkpt lat="45.04029" lon="6.49159">
        <ele>2550</ele>
        <time>2020-01-23T10:38:30Z</time>
      </trkpt>
      <trkpt lat="45.04033" lon="6.4916">
        <ele>2551</ele>
        <time>2020-01-23T10:38:42Z</time>
      </trkpt>
      <trkpt lat="45.04045" lon="6.49164">
        <ele>2553</ele>
        <time>2020-01-23T10:39:06Z</time>
      </trkpt>
      <trkpt lat="45.04047" lon="6.49163">
        <ele>2554</ele>
        <time>2020-01-23T10:39:13Z</time>
      </trkpt>
      <trkpt lat="45.0405" lon="6.49162">
        <ele>2555</ele>
        <time>2020-01-23T10:39:20Z</time>
      </trkpt>
      <trkpt lat="45.04053" lon="6.49163">
        <ele>2556</ele>
        <time>2020-01-23T10:39:24Z</time>
      </trkpt>
      <trkpt lat="45.04055" lon="6.49164">
        <ele>2557</ele>
        <time>2020-01-23T10:39:29Z</time>
      </trkpt>
      <trkpt lat="45.04057" lon="6.49166">
        <ele>2556</ele>
        <time>2020-01-23T10:39:35Z</time>
      </trkpt>
      <trkpt lat="45.04058" lon="6.49169">
        <ele>2556</ele>
        <time>2020-01-23T10:39:40Z</time>
      </trkpt>
      <trkpt lat="45.04061" lon="6.4917">
        <ele>2555</ele>
        <time>2020-01-23T10:39:46Z</time>
      </trkpt>
      <trkpt lat="45.04063" lon="6.49171">
        <ele>2556</ele>
        <time>2020-01-23T10:39:49Z</time>
      </trkpt>
      <trkpt lat="45.04069" lon="6.49175">
        <ele>2558</ele>
        <time>2020-01-23T10:40:08Z</time>
      </trkpt>
      <trkpt lat="45.04071" lon="6.49174">
        <ele>2558</ele>
        <time>2020-01-23T10:40:13Z</time>
      </trkpt>
      <trkpt lat="45.04073" lon="6.49176">
        <ele>2558</ele>
        <time>2020-01-23T10:40:17Z</time>
      </trkpt>
      <trkpt lat="45.04078" lon="6.49178">
        <ele>2561</ele>
        <time>2020-01-23T10:40:28Z</time>
      </trkpt>
      <trkpt lat="45.0408" lon="6.49176">
        <ele>2563</ele>
        <time>2020-01-23T10:40:32Z</time>
      </trkpt>
      <trkpt lat="45.0408" lon="6.49179">
        <ele>2565</ele>
        <time>2020-01-23T10:41:08Z</time>
      </trkpt>
      <trkpt lat="45.04078" lon="6.49181">
        <ele>2565</ele>
        <time>2020-01-23T10:41:12Z</time>
      </trkpt>
      <trkpt lat="45.04076" lon="6.49183">
        <ele>2568</ele>
        <time>2020-01-23T10:41:15Z</time>
      </trkpt>
      <trkpt lat="45.04074" lon="6.49183">
        <ele>2569</ele>
        <time>2020-01-23T10:41:18Z</time>
      </trkpt>
      <trkpt lat="45.04073" lon="6.49184">
        <ele>2570</ele>
        <time>2020-01-23T10:41:23Z</time>
      </trkpt>
      <trkpt lat="45.04071" lon="6.49186">
        <ele>2570</ele>
        <time>2020-01-23T10:41:25Z</time>
      </trkpt>
      <trkpt lat="45.04068" lon="6.49188">
        <ele>2570</ele>
        <time>2020-01-23T10:41:31Z</time>
      </trkpt>
      <trkpt lat="45.04066" lon="6.49189">
        <ele>2572</ele>
        <time>2020-01-23T10:41:37Z</time>
      </trkpt>
      <trkpt lat="45.04063" lon="6.49191">
        <ele>2571</ele>
        <time>2020-01-23T10:41:42Z</time>
      </trkpt>
      <trkpt lat="45.0406" lon="6.49196">
        <ele>2574</ele>
        <time>2020-01-23T10:41:51Z</time>
      </trkpt>
      <trkpt lat="45.04058" lon="6.49197">
        <ele>2576</ele>
        <time>2020-01-23T10:41:59Z</time>
      </trkpt>
      <trkpt lat="45.04056" lon="6.49197">
        <ele>2575</ele>
        <time>2020-01-23T10:42:33Z</time>
      </trkpt>
      <trkpt lat="45.04054" lon="6.49198">
        <ele>2575</ele>
        <time>2020-01-23T10:42:38Z</time>
      </trkpt>
      <trkpt lat="45.04053" lon="6.49202">
        <ele>2575</ele>
        <time>2020-01-23T10:42:44Z</time>
      </trkpt>
      <trkpt lat="45.04049" lon="6.49206">
        <ele>2576</ele>
        <time>2020-01-23T10:42:54Z</time>
      </trkpt>
      <trkpt lat="45.04047" lon="6.49208">
        <ele>2575</ele>
        <time>2020-01-23T10:42:59Z</time>
      </trkpt>
      <trkpt lat="45.04045" lon="6.4921">
        <ele>2576</ele>
        <time>2020-01-23T10:43:03Z</time>
      </trkpt>
      <trkpt lat="45.04044" lon="6.49212">
        <ele>2576</ele>
        <time>2020-01-23T10:43:05Z</time>
      </trkpt>
      <trkpt lat="45.04043" lon="6.49213">
        <ele>2578</ele>
        <time>2020-01-23T10:43:09Z</time>
      </trkpt>
      <trkpt lat="45.04041" lon="6.49216">
        <ele>2577</ele>
        <time>2020-01-23T10:43:13Z</time>
      </trkpt>
      <trkpt lat="45.04039" lon="6.49217">
        <ele>2578</ele>
        <time>2020-01-23T10:43:18Z</time>
      </trkpt>
      <trkpt lat="45.04033" lon="6.49225">
        <ele>2581</ele>
        <time>2020-01-23T10:43:33Z</time>
      </trkpt>
      <trkpt lat="45.04032" lon="6.49227">
        <ele>2584</ele>
        <time>2020-01-23T10:44:16Z</time>
      </trkpt>
      <trkpt lat="45.04041" lon="6.49234">
        <ele>2587</ele>
        <time>2020-01-23T10:44:31Z</time>
      </trkpt>
      <trkpt lat="45.04044" lon="6.49236">
        <ele>2587</ele>
        <time>2020-01-23T10:44:40Z</time>
      </trkpt>
      <trkpt lat="45.04046" lon="6.49233">
        <ele>2587</ele>
        <time>2020-01-23T10:44:44Z</time>
      </trkpt>
      <trkpt lat="45.04048" lon="6.49235">
        <ele>2587</ele>
        <time>2020-01-23T10:44:49Z</time>
      </trkpt>
      <trkpt lat="45.04051" lon="6.49233">
        <ele>2587</ele>
        <time>2020-01-23T10:44:57Z</time>
      </trkpt>
      <trkpt lat="45.04053" lon="6.49233">
        <ele>2587</ele>
        <time>2020-01-23T10:45:01Z</time>
      </trkpt>
      <trkpt lat="45.04056" lon="6.49245">
        <ele>2594</ele>
        <time>2020-01-23T10:45:08Z</time>
      </trkpt>
      <trkpt lat="45.0406" lon="6.49241">
        <ele>2599</ele>
        <time>2020-01-23T10:45:13Z</time>
      </trkpt>
      <trkpt lat="45.04063" lon="6.4924">
        <ele>2597</ele>
        <time>2020-01-23T10:45:18Z</time>
      </trkpt>
      <trkpt lat="45.04064" lon="6.49237">
        <ele>2595</ele>
        <time>2020-01-23T10:45:32Z</time>
      </trkpt>
      <trkpt lat="45.04067" lon="6.49237">
        <ele>2595</ele>
        <time>2020-01-23T10:45:35Z</time>
      </trkpt>
      <trkpt lat="45.04068" lon="6.49239">
        <ele>2594</ele>
        <time>2020-01-23T10:45:40Z</time>
      </trkpt>
      <trkpt lat="45.04078" lon="6.49248">
        <ele>2595</ele>
        <time>2020-01-23T10:46:02Z</time>
      </trkpt>
      <trkpt lat="45.04081" lon="6.49249">
        <ele>2596</ele>
        <time>2020-01-23T10:46:05Z</time>
      </trkpt>
      <trkpt lat="45.04088" lon="6.49251">
        <ele>2600</ele>
        <time>2020-01-23T10:46:31Z</time>
      </trkpt>
      <trkpt lat="45.04087" lon="6.49253">
        <ele>2599</ele>
        <time>2020-01-23T10:46:50Z</time>
      </trkpt>
      <trkpt lat="45.04073" lon="6.49265">
        <ele>2605</ele>
        <time>2020-01-23T10:47:25Z</time>
      </trkpt>
      <trkpt lat="45.04071" lon="6.49264">
        <ele>2606</ele>
        <time>2020-01-23T10:47:29Z</time>
      </trkpt>
      <trkpt lat="45.04067" lon="6.49269">
        <ele>2610</ele>
        <time>2020-01-23T10:47:39Z</time>
      </trkpt>
      <trkpt lat="45.04063" lon="6.49271">
        <ele>2610</ele>
        <time>2020-01-23T10:47:49Z</time>
      </trkpt>
      <trkpt lat="45.04061" lon="6.49272">
        <ele>2610</ele>
        <time>2020-01-23T10:47:53Z</time>
      </trkpt>
      <trkpt lat="45.04056" lon="6.49275">
        <ele>2611</ele>
        <time>2020-01-23T10:48:06Z</time>
      </trkpt>
      <trkpt lat="45.04054" lon="6.49276">
        <ele>2613</ele>
        <time>2020-01-23T10:48:11Z</time>
      </trkpt>
      <trkpt lat="45.04051" lon="6.49274">
        <ele>2616</ele>
        <time>2020-01-23T10:48:15Z</time>
      </trkpt>
      <trkpt lat="45.04051" lon="6.49279">
        <ele>2618</ele>
        <time>2020-01-23T10:48:19Z</time>
      </trkpt>
      <trkpt lat="45.04051" lon="6.49283">
        <ele>2616</ele>
        <time>2020-01-23T10:48:20Z</time>
      </trkpt>
      <trkpt lat="45.04053" lon="6.49285">
        <ele>2615</ele>
        <time>2020-01-23T10:48:38Z</time>
      </trkpt>
      <trkpt lat="45.04055" lon="6.49288">
        <ele>2615</ele>
        <time>2020-01-23T10:48:44Z</time>
      </trkpt>
      <trkpt lat="45.04057" lon="6.49291">
        <ele>2614</ele>
        <time>2020-01-23T10:48:47Z</time>
      </trkpt>
      <trkpt lat="45.0406" lon="6.49292">
        <ele>2614</ele>
        <time>2020-01-23T10:48:57Z</time>
      </trkpt>
      <trkpt lat="45.04063" lon="6.49295">
        <ele>2616</ele>
        <time>2020-01-23T10:49:05Z</time>
      </trkpt>
      <trkpt lat="45.04066" lon="6.49295">
        <ele>2617</ele>
        <time>2020-01-23T10:49:10Z</time>
      </trkpt>
      <trkpt lat="45.04068" lon="6.49296">
        <ele>2617</ele>
        <time>2020-01-23T10:49:35Z</time>
      </trkpt>
      <trkpt lat="45.04071" lon="6.49298">
        <ele>2618</ele>
        <time>2020-01-23T10:49:40Z</time>
      </trkpt>
      <trkpt lat="45.04074" lon="6.49299">
        <ele>2619</ele>
        <time>2020-01-23T10:49:47Z</time>
      </trkpt>
      <trkpt lat="45.04078" lon="6.49303">
        <ele>2620</ele>
        <time>2020-01-23T10:49:56Z</time>
      </trkpt>
      <trkpt lat="45.04083" lon="6.49307">
        <ele>2622</ele>
        <time>2020-01-23T10:50:06Z</time>
      </trkpt>
      <trkpt lat="45.04086" lon="6.49307">
        <ele>2623</ele>
        <time>2020-01-23T10:50:12Z</time>
      </trkpt>
      <trkpt lat="45.04088" lon="6.49307">
        <ele>2625</ele>
        <time>2020-01-23T10:50:18Z</time>
      </trkpt>
      <trkpt lat="45.0409" lon="6.49306">
        <ele>2626</ele>
        <time>2020-01-23T10:50:25Z</time>
      </trkpt>
      <trkpt lat="45.04092" lon="6.49309">
        <ele>2627</ele>
        <time>2020-01-23T10:50:29Z</time>
      </trkpt>
      <trkpt lat="45.04095" lon="6.4931">
        <ele>2628</ele>
        <time>2020-01-23T10:50:37Z</time>
      </trkpt>
      <trkpt lat="45.04097" lon="6.49311">
        <ele>2629</ele>
        <time>2020-01-23T10:50:42Z</time>
      </trkpt>
      <trkpt lat="45.04103" lon="6.49311">
        <ele>2629</ele>
        <time>2020-01-23T10:50:52Z</time>
      </trkpt>
      <trkpt lat="45.04106" lon="6.49311">
        <ele>2632</ele>
        <time>2020-01-23T10:51:00Z</time>
      </trkpt>
      <trkpt lat="45.04114" lon="6.49312">
        <ele>2634</ele>
        <time>2020-01-23T10:51:16Z</time>
      </trkpt>
      <trkpt lat="45.04116" lon="6.49311">
        <ele>2634</ele>
        <time>2020-01-23T10:51:22Z</time>
      </trkpt>
      <trkpt lat="45.04122" lon="6.49314">
        <ele>2637</ele>
        <time>2020-01-23T10:51:44Z</time>
      </trkpt>
      <trkpt lat="45.04121" lon="6.49311">
        <ele>2637</ele>
        <time>2020-01-23T10:52:31Z</time>
      </trkpt>
      <trkpt lat="45.04119" lon="6.4931">
        <ele>2637</ele>
        <time>2020-01-23T10:52:41Z</time>
      </trkpt>
      <trkpt lat="45.04117" lon="6.49312">
        <ele>2637</ele>
        <time>2020-01-23T10:52:46Z</time>
      </trkpt>
      <trkpt lat="45.04114" lon="6.49313">
        <ele>2640</ele>
        <time>2020-01-23T10:52:51Z</time>
      </trkpt>
      <trkpt lat="45.04113" lon="6.49315">
        <ele>2640</ele>
        <time>2020-01-23T10:52:59Z</time>
      </trkpt>
      <trkpt lat="45.04111" lon="6.49318">
        <ele>2641</ele>
        <time>2020-01-23T10:53:06Z</time>
      </trkpt>
      <trkpt lat="45.04112" lon="6.49321">
        <ele>2641</ele>
        <time>2020-01-23T10:53:15Z</time>
      </trkpt>
      <trkpt lat="45.04121" lon="6.49332">
        <ele>2641</ele>
        <time>2020-01-23T10:53:36Z</time>
      </trkpt>
      <trkpt lat="45.04125" lon="6.4933">
        <ele>2642</ele>
        <time>2020-01-23T10:53:46Z</time>
      </trkpt>
      <trkpt lat="45.04129" lon="6.49328">
        <ele>2642</ele>
        <time>2020-01-23T10:53:52Z</time>
      </trkpt>
      <trkpt lat="45.04132" lon="6.49331">
        <ele>2644</ele>
        <time>2020-01-23T10:53:56Z</time>
      </trkpt>
      <trkpt lat="45.04135" lon="6.4933">
        <ele>2645</ele>
        <time>2020-01-23T10:54:05Z</time>
      </trkpt>
      <trkpt lat="45.04138" lon="6.49331">
        <ele>2645</ele>
        <time>2020-01-23T10:54:09Z</time>
      </trkpt>
      <trkpt lat="45.04142" lon="6.49333">
        <ele>2643</ele>
        <time>2020-01-23T10:54:18Z</time>
      </trkpt>
      <trkpt lat="45.04144" lon="6.49333">
        <ele>2644</ele>
        <time>2020-01-23T10:54:26Z</time>
      </trkpt>
      <trkpt lat="45.04147" lon="6.49333">
        <ele>2646</ele>
        <time>2020-01-23T10:54:38Z</time>
      </trkpt>
      <trkpt lat="45.04148" lon="6.49335">
        <ele>2646</ele>
        <time>2020-01-23T10:54:41Z</time>
      </trkpt>
      <trkpt lat="45.0415" lon="6.49337">
        <ele>2646</ele>
        <time>2020-01-23T10:54:46Z</time>
      </trkpt>
      <trkpt lat="45.04153" lon="6.49338">
        <ele>2647</ele>
        <time>2020-01-23T10:54:53Z</time>
      </trkpt>
      <trkpt lat="45.04154" lon="6.49339">
        <ele>2650</ele>
        <time>2020-01-23T10:55:31Z</time>
      </trkpt>
      <trkpt lat="45.0415" lon="6.49329">
        <ele>2652</ele>
        <time>2020-01-23T10:56:27Z</time>
      </trkpt>
      <trkpt lat="45.04149" lon="6.49332">
        <ele>2662</ele>
        <time>2020-01-23T10:56:45Z</time>
      </trkpt>
      <trkpt lat="45.04143" lon="6.49337">
        <ele>2663</ele>
        <time>2020-01-23T10:56:59Z</time>
      </trkpt>
      <trkpt lat="45.04136" lon="6.49341">
        <ele>2659</ele>
        <time>2020-01-23T10:57:15Z</time>
      </trkpt>
      <trkpt lat="45.04131" lon="6.49341">
        <ele>2665</ele>
        <time>2020-01-23T10:57:20Z</time>
      </trkpt>
      <trkpt lat="45.04131" lon="6.49346">
        <ele>2665</ele>
        <time>2020-01-23T10:57:25Z</time>
      </trkpt>
      <trkpt lat="45.04126" lon="6.49352">
        <ele>2666</ele>
        <time>2020-01-23T10:57:40Z</time>
      </trkpt>
      <trkpt lat="45.04123" lon="6.49353">
        <ele>2666</ele>
        <time>2020-01-23T10:57:45Z</time>
      </trkpt>
      <trkpt lat="45.0412" lon="6.49358">
        <ele>2665</ele>
        <time>2020-01-23T10:58:00Z</time>
      </trkpt>
      <trkpt lat="45.04114" lon="6.4936">
        <ele>2664</ele>
        <time>2020-01-23T10:58:21Z</time>
      </trkpt>
      <trkpt lat="45.04113" lon="6.49363">
        <ele>2664</ele>
        <time>2020-01-23T10:58:34Z</time>
      </trkpt>
      <trkpt lat="45.04111" lon="6.49366">
        <ele>2665</ele>
        <time>2020-01-23T10:58:37Z</time>
      </trkpt>
      <trkpt lat="45.04109" lon="6.49368">
        <ele>2666</ele>
        <time>2020-01-23T10:58:45Z</time>
      </trkpt>
      <trkpt lat="45.04107" lon="6.4937">
        <ele>2667</ele>
        <time>2020-01-23T10:58:55Z</time>
      </trkpt>
      <trkpt lat="45.04104" lon="6.4937">
        <ele>2670</ele>
        <time>2020-01-23T10:58:59Z</time>
      </trkpt>
      <trkpt lat="45.041" lon="6.49375">
        <ele>2672</ele>
        <time>2020-01-23T10:59:10Z</time>
      </trkpt>
      <trkpt lat="45.04094" lon="6.49377">
        <ele>2672</ele>
        <time>2020-01-23T10:59:22Z</time>
      </trkpt>
      <trkpt lat="45.04092" lon="6.4938">
        <ele>2673</ele>
        <time>2020-01-23T10:59:34Z</time>
      </trkpt>
      <trkpt lat="45.0409" lon="6.49387">
        <ele>2674</ele>
        <time>2020-01-23T10:59:44Z</time>
      </trkpt>
      <trkpt lat="45.04088" lon="6.4939">
        <ele>2676</ele>
        <time>2020-01-23T10:59:48Z</time>
      </trkpt>
      <trkpt lat="45.04086" lon="6.49394">
        <ele>2677</ele>
        <time>2020-01-23T10:59:54Z</time>
      </trkpt>
      <trkpt lat="45.04083" lon="6.49394">
        <ele>2678</ele>
        <time>2020-01-23T10:59:59Z</time>
      </trkpt>
      <trkpt lat="45.04081" lon="6.49397">
        <ele>2679</ele>
        <time>2020-01-23T11:00:07Z</time>
      </trkpt>
      <trkpt lat="45.0408" lon="6.49401">
        <ele>2681</ele>
        <time>2020-01-23T11:00:16Z</time>
      </trkpt>
      <trkpt lat="45.04074" lon="6.49403">
        <ele>2682</ele>
        <time>2020-01-23T11:00:31Z</time>
      </trkpt>
      <trkpt lat="45.04072" lon="6.49406">
        <ele>2683</ele>
        <time>2020-01-23T11:00:38Z</time>
      </trkpt>
      <trkpt lat="45.04061" lon="6.49414">
        <ele>2688</ele>
        <time>2020-01-23T11:01:10Z</time>
      </trkpt>
      <trkpt lat="45.04055" lon="6.49421">
        <ele>2688</ele>
        <time>2020-01-23T11:01:34Z</time>
      </trkpt>
      <trkpt lat="45.04053" lon="6.4942">
        <ele>2689</ele>
        <time>2020-01-23T11:01:38Z</time>
      </trkpt>
      <trkpt lat="45.04051" lon="6.49423">
        <ele>2691</ele>
        <time>2020-01-23T11:01:44Z</time>
      </trkpt>
      <trkpt lat="45.0405" lon="6.49424">
        <ele>2692</ele>
        <time>2020-01-23T11:01:50Z</time>
      </trkpt>
      <trkpt lat="45.04048" lon="6.49427">
        <ele>2692</ele>
        <time>2020-01-23T11:01:58Z</time>
      </trkpt>
      <trkpt lat="45.04047" lon="6.49428">
        <ele>2693</ele>
        <time>2020-01-23T11:02:05Z</time>
      </trkpt>
      <trkpt lat="45.04043" lon="6.49431">
        <ele>2695</ele>
        <time>2020-01-23T11:02:27Z</time>
      </trkpt>
      <trkpt lat="45.04051" lon="6.49446">
        <ele>2695</ele>
        <time>2020-01-23T11:02:57Z</time>
      </trkpt>
      <trkpt lat="45.04058" lon="6.49451">
        <ele>2692</ele>
        <time>2020-01-23T11:03:22Z</time>
      </trkpt>
      <trkpt lat="45.04059" lon="6.49454">
        <ele>2693</ele>
        <time>2020-01-23T11:03:26Z</time>
      </trkpt>
      <trkpt lat="45.04061" lon="6.49455">
        <ele>2694</ele>
        <time>2020-01-23T11:03:33Z</time>
      </trkpt>
      <trkpt lat="45.04064" lon="6.49455">
        <ele>2699</ele>
        <time>2020-01-23T11:03:40Z</time>
      </trkpt>
      <trkpt lat="45.04065" lon="6.49458">
        <ele>2699</ele>
        <time>2020-01-23T11:03:43Z</time>
      </trkpt>
      <trkpt lat="45.04068" lon="6.49458">
        <ele>2695</ele>
        <time>2020-01-23T11:03:48Z</time>
      </trkpt>
      <trkpt lat="45.04071" lon="6.4946">
        <ele>2701</ele>
        <time>2020-01-23T11:04:23Z</time>
      </trkpt>
      <trkpt lat="45.0407" lon="6.49459">
        <ele>2703</ele>
        <time>2020-01-23T11:04:36Z</time>
      </trkpt>
      <trkpt lat="45.04068" lon="6.4946">
        <ele>2704</ele>
        <time>2020-01-23T11:04:41Z</time>
      </trkpt>
      <trkpt lat="45.04063" lon="6.49461">
        <ele>2707</ele>
        <time>2020-01-23T11:04:51Z</time>
      </trkpt>
      <trkpt lat="45.04061" lon="6.49463">
        <ele>2709</ele>
        <time>2020-01-23T11:05:00Z</time>
      </trkpt>
      <trkpt lat="45.04059" lon="6.49465">
        <ele>2710</ele>
        <time>2020-01-23T11:05:06Z</time>
      </trkpt>
      <trkpt lat="45.04057" lon="6.49467">
        <ele>2712</ele>
        <time>2020-01-23T11:05:11Z</time>
      </trkpt>
      <trkpt lat="45.04055" lon="6.49468">
        <ele>2713</ele>
        <time>2020-01-23T11:05:18Z</time>
      </trkpt>
      <trkpt lat="45.04053" lon="6.4947">
        <ele>2714</ele>
        <time>2020-01-23T11:05:25Z</time>
      </trkpt>
      <trkpt lat="45.04046" lon="6.49472">
        <ele>2717</ele>
        <time>2020-01-23T11:05:42Z</time>
      </trkpt>
      <trkpt lat="45.04044" lon="6.49474">
        <ele>2718</ele>
        <time>2020-01-23T11:05:48Z</time>
      </trkpt>
      <trkpt lat="45.04043" lon="6.49475">
        <ele>2718</ele>
        <time>2020-01-23T11:05:58Z</time>
      </trkpt>
      <trkpt lat="45.04041" lon="6.49475">
        <ele>2719</ele>
        <time>2020-01-23T11:06:30Z</time>
      </trkpt>
      <trkpt lat="45.04041" lon="6.49477">
        <ele>2720</ele>
        <time>2020-01-23T11:06:33Z</time>
      </trkpt>
      <trkpt lat="45.04042" lon="6.4948">
        <ele>2720</ele>
        <time>2020-01-23T11:06:36Z</time>
      </trkpt>
      <trkpt lat="45.04043" lon="6.49482">
        <ele>2719</ele>
        <time>2020-01-23T11:06:40Z</time>
      </trkpt>
      <trkpt lat="45.04045" lon="6.49484">
        <ele>2718</ele>
        <time>2020-01-23T11:06:43Z</time>
      </trkpt>
      <trkpt lat="45.04048" lon="6.49487">
        <ele>2716</ele>
        <time>2020-01-23T11:06:51Z</time>
      </trkpt>
      <trkpt lat="45.0405" lon="6.49489">
        <ele>2716</ele>
        <time>2020-01-23T11:06:53Z</time>
      </trkpt>
      <trkpt lat="45.04051" lon="6.49491">
        <ele>2716</ele>
        <time>2020-01-23T11:06:56Z</time>
      </trkpt>
      <trkpt lat="45.04059" lon="6.49501">
        <ele>2718</ele>
        <time>2020-01-23T11:07:23Z</time>
      </trkpt>
      <trkpt lat="45.0406" lon="6.49499">
        <ele>2719</ele>
        <time>2020-01-23T11:07:28Z</time>
      </trkpt>
      <trkpt lat="45.04065" lon="6.49503">
        <ele>2720</ele>
        <time>2020-01-23T11:07:42Z</time>
      </trkpt>
      <trkpt lat="45.04063" lon="6.49502">
        <ele>2719</ele>
        <time>2020-01-23T11:08:14Z</time>
      </trkpt>
      <trkpt lat="45.04057" lon="6.49502">
        <ele>2726</ele>
        <time>2020-01-23T11:08:24Z</time>
      </trkpt>
      <trkpt lat="45.04052" lon="6.49506">
        <ele>2733</ele>
        <time>2020-01-23T11:08:47Z</time>
      </trkpt>
      <trkpt lat="45.04051" lon="6.49509">
        <ele>2734</ele>
        <time>2020-01-23T11:08:51Z</time>
      </trkpt>
      <trkpt lat="45.04048" lon="6.49509">
        <ele>2738</ele>
        <time>2020-01-23T11:08:59Z</time>
      </trkpt>
      <trkpt lat="45.04041" lon="6.49511">
        <ele>2737</ele>
        <time>2020-01-23T11:09:20Z</time>
      </trkpt>
      <trkpt lat="45.04039" lon="6.49513">
        <ele>2738</ele>
        <time>2020-01-23T11:09:30Z</time>
      </trkpt>
      <trkpt lat="45.04039" lon="6.49516">
        <ele>2740</ele>
        <time>2020-01-23T11:09:52Z</time>
      </trkpt>
      <trkpt lat="45.04041" lon="6.49518">
        <ele>2740</ele>
        <time>2020-01-23T11:10:00Z</time>
      </trkpt>
      <trkpt lat="45.04042" lon="6.4952">
        <ele>2740</ele>
        <time>2020-01-23T11:10:06Z</time>
      </trkpt>
      <trkpt lat="45.04044" lon="6.49521">
        <ele>2739</ele>
        <time>2020-01-23T11:10:10Z</time>
      </trkpt>
      <trkpt lat="45.04047" lon="6.49525">
        <ele>2737</ele>
        <time>2020-01-23T11:10:22Z</time>
      </trkpt>
      <trkpt lat="45.0405" lon="6.49528">
        <ele>2740</ele>
        <time>2020-01-23T11:10:45Z</time>
      </trkpt>
      <trkpt lat="45.04051" lon="6.49531">
        <ele>2739</ele>
        <time>2020-01-23T11:10:54Z</time>
      </trkpt>
      <trkpt lat="45.04053" lon="6.49539">
        <ele>2745</ele>
        <time>2020-01-23T11:11:06Z</time>
      </trkpt>
      <trkpt lat="45.04056" lon="6.4954">
        <ele>2739</ele>
        <time>2020-01-23T11:11:19Z</time>
      </trkpt>
      <trkpt lat="45.0406" lon="6.49538">
        <ele>2747</ele>
        <time>2020-01-23T11:11:32Z</time>
      </trkpt>
      <trkpt lat="45.04055" lon="6.49539">
        <ele>2749</ele>
        <time>2020-01-23T11:12:03Z</time>
      </trkpt>
      <trkpt lat="45.04052" lon="6.4954">
        <ele>2749</ele>
        <time>2020-01-23T11:12:07Z</time>
      </trkpt>
      <trkpt lat="45.04051" lon="6.49544">
        <ele>2755</ele>
        <time>2020-01-23T11:12:17Z</time>
      </trkpt>
      <trkpt lat="45.04046" lon="6.49547">
        <ele>2758</ele>
        <time>2020-01-23T11:12:36Z</time>
      </trkpt>
      <trkpt lat="45.04044" lon="6.49546">
        <ele>2758</ele>
        <time>2020-01-23T11:12:40Z</time>
      </trkpt>
      <trkpt lat="45.04042" lon="6.49548">
        <ele>2758</ele>
        <time>2020-01-23T11:12:49Z</time>
      </trkpt>
      <trkpt lat="45.04038" lon="6.4955">
        <ele>2760</ele>
        <time>2020-01-23T11:13:19Z</time>
      </trkpt>
      <trkpt lat="45.04036" lon="6.4955">
        <ele>2762</ele>
        <time>2020-01-23T11:13:31Z</time>
      </trkpt>
      <trkpt lat="45.04037" lon="6.49553">
        <ele>2763</ele>
        <time>2020-01-23T11:13:42Z</time>
      </trkpt>
      <trkpt lat="45.04038" lon="6.49556">
        <ele>2762</ele>
        <time>2020-01-23T11:13:46Z</time>
      </trkpt>
      <trkpt lat="45.04042" lon="6.4956">
        <ele>2760</ele>
        <time>2020-01-23T11:13:56Z</time>
      </trkpt>
      <trkpt lat="45.04043" lon="6.49563">
        <ele>2759</ele>
        <time>2020-01-23T11:14:04Z</time>
      </trkpt>
      <trkpt lat="45.04045" lon="6.49564">
        <ele>2758</ele>
        <time>2020-01-23T11:14:11Z</time>
      </trkpt>
      <trkpt lat="45.04048" lon="6.49569">
        <ele>2757</ele>
        <time>2020-01-23T11:14:22Z</time>
      </trkpt>
      <trkpt lat="45.04052" lon="6.49574">
        <ele>2758</ele>
        <time>2020-01-23T11:14:32Z</time>
      </trkpt>
      <trkpt lat="45.04057" lon="6.49578">
        <ele>2759</ele>
        <time>2020-01-23T11:14:46Z</time>
      </trkpt>
      <trkpt lat="45.04058" lon="6.49577">
        <ele>2759</ele>
        <time>2020-01-23T11:14:52Z</time>
      </trkpt>
      <trkpt lat="45.04057" lon="6.49575">
        <ele>2761</ele>
        <time>2020-01-23T11:15:03Z</time>
      </trkpt>
      <trkpt lat="45.04051" lon="6.49578">
        <ele>2769</ele>
        <time>2020-01-23T11:15:26Z</time>
      </trkpt>
      <trkpt lat="45.04048" lon="6.4958">
        <ele>2770</ele>
        <time>2020-01-23T11:15:34Z</time>
      </trkpt>
      <trkpt lat="45.04046" lon="6.49584">
        <ele>2775</ele>
        <time>2020-01-23T11:15:48Z</time>
      </trkpt>
      <trkpt lat="45.04044" lon="6.49585">
        <ele>2776</ele>
        <time>2020-01-23T11:15:56Z</time>
      </trkpt>
      <trkpt lat="45.04042" lon="6.49586">
        <ele>2778</ele>
        <time>2020-01-23T11:16:03Z</time>
      </trkpt>
      <trkpt lat="45.04039" lon="6.49585">
        <ele>2779</ele>
        <time>2020-01-23T11:16:09Z</time>
      </trkpt>
      <trkpt lat="45.04037" lon="6.49586">
        <ele>2782</ele>
        <time>2020-01-23T11:16:16Z</time>
      </trkpt>
      <trkpt lat="45.04032" lon="6.49587">
        <ele>2784</ele>
        <time>2020-01-23T11:16:36Z</time>
      </trkpt>
      <trkpt lat="45.0403" lon="6.49588">
        <ele>2784</ele>
        <time>2020-01-23T11:16:45Z</time>
      </trkpt>
      <trkpt lat="45.04032" lon="6.49591">
        <ele>2784</ele>
        <time>2020-01-23T11:16:52Z</time>
      </trkpt>
      <trkpt lat="45.04034" lon="6.49593">
        <ele>2782</ele>
        <time>2020-01-23T11:16:55Z</time>
      </trkpt>
      <trkpt lat="45.04037" lon="6.49598">
        <ele>2781</ele>
        <time>2020-01-23T11:17:04Z</time>
      </trkpt>
      <trkpt lat="45.04039" lon="6.49601">
        <ele>2780</ele>
        <time>2020-01-23T11:17:11Z</time>
      </trkpt>
      <trkpt lat="45.0404" lon="6.49608">
        <ele>2779</ele>
        <time>2020-01-23T11:17:38Z</time>
      </trkpt>
      <trkpt lat="45.04044" lon="6.49612">
        <ele>2780</ele>
        <time>2020-01-23T11:17:50Z</time>
      </trkpt>
      <trkpt lat="45.04054" lon="6.4962">
        <ele>2783</ele>
        <time>2020-01-23T11:18:35Z</time>
      </trkpt>
      <trkpt lat="45.04058" lon="6.49619">
        <ele>2785</ele>
        <time>2020-01-23T11:19:00Z</time>
      </trkpt>
      <trkpt lat="45.04063" lon="6.49619">
        <ele>2787</ele>
        <time>2020-01-23T11:19:22Z</time>
      </trkpt>
      <trkpt lat="45.04066" lon="6.49623">
        <ele>2788</ele>
        <time>2020-01-23T11:19:28Z</time>
      </trkpt>
      <trkpt lat="45.04065" lon="6.4962">
        <ele>2790</ele>
        <time>2020-01-23T11:20:03Z</time>
      </trkpt>
      <trkpt lat="45.04061" lon="6.49625">
        <ele>2789</ele>
        <time>2020-01-23T11:20:38Z</time>
      </trkpt>
      <trkpt lat="45.04061" lon="6.49619">
        <ele>2791</ele>
        <time>2020-01-23T11:21:13Z</time>
      </trkpt>
      <trkpt lat="45.04057" lon="6.49623">
        <ele>2793</ele>
        <time>2020-01-23T11:21:44Z</time>
      </trkpt>
      <trkpt lat="45.04051" lon="6.49626">
        <ele>2799</ele>
        <time>2020-01-23T11:21:51Z</time>
      </trkpt>
      <trkpt lat="45.04047" lon="6.49629">
        <ele>2800</ele>
        <time>2020-01-23T11:21:58Z</time>
      </trkpt>
      <trkpt lat="45.04047" lon="6.49642">
        <ele>2802</ele>
        <time>2020-01-23T11:22:17Z</time>
      </trkpt>
      <trkpt lat="45.04052" lon="6.4964">
        <ele>2808</ele>
        <time>2020-01-23T11:22:38Z</time>
      </trkpt>
      <trkpt lat="45.04056" lon="6.49645">
        <ele>2810</ele>
        <time>2020-01-23T11:22:44Z</time>
      </trkpt>
      <trkpt lat="45.04061" lon="6.49646">
        <ele>2809</ele>
        <time>2020-01-23T11:22:51Z</time>
      </trkpt>
      <trkpt lat="45.04069" lon="6.49654">
        <ele>2807</ele>
        <time>2020-01-23T11:23:22Z</time>
      </trkpt>
      <trkpt lat="45.04073" lon="6.49653">
        <ele>2809</ele>
        <time>2020-01-23T11:23:42Z</time>
      </trkpt>
      <trkpt lat="45.04067" lon="6.49475">
        <ele>2347</ele>
        <time>2020-01-23T11:23:49Z</time>
      </trkpt>
      <trkpt lat="45.04068" lon="6.49514">
        <ele>2051</ele>
        <time>2020-01-23T11:23:57Z</time>
      </trkpt>
      <trkpt lat="45.04075" lon="6.4952">
        <ele>2053</ele>
        <time>2020-01-23T11:24:03Z</time>
      </trkpt>
      <trkpt lat="45.04076" lon="6.4953">
        <ele>2100</ele>
        <time>2020-01-23T11:24:10Z</time>
      </trkpt>
      <trkpt lat="45.04076" lon="6.49539">
        <ele>2121</ele>
        <time>2020-01-23T11:24:16Z</time>
      </trkpt>
      <trkpt lat="45.04078" lon="6.49545">
        <ele>2155</ele>
        <time>2020-01-23T11:24:19Z</time>
      </trkpt>
      <trkpt lat="45.04084" lon="6.49559">
        <ele>2231</ele>
        <time>2020-01-23T11:24:32Z</time>
      </trkpt>
      <trkpt lat="45.04085" lon="6.49566">
        <ele>2283</ele>
        <time>2020-01-23T11:24:48Z</time>
      </trkpt>
      <trkpt lat="45.04086" lon="6.49571">
        <ele>2347</ele>
        <time>2020-01-23T11:24:55Z</time>
      </trkpt>
      <trkpt lat="45.04087" lon="6.49576">
        <ele>2358</ele>
        <time>2020-01-23T11:25:00Z</time>
      </trkpt>
      <trkpt lat="45.04086" lon="6.49583">
        <ele>2393</ele>
        <time>2020-01-23T11:25:05Z</time>
      </trkpt>
      <trkpt lat="45.04086" lon="6.49591">
        <ele>2403</ele>
        <time>2020-01-23T11:25:08Z</time>
      </trkpt>
      <trkpt lat="45.04086" lon="6.49599">
        <ele>2434</ele>
        <time>2020-01-23T11:25:18Z</time>
      </trkpt>
      <trkpt lat="45.04082" lon="6.49611">
        <ele>2467</ele>
        <time>2020-01-23T11:25:37Z</time>
      </trkpt>
      <trkpt lat="45.04076" lon="6.49643">
        <ele>2668</ele>
        <time>2020-01-23T11:25:47Z</time>
      </trkpt>
      <trkpt lat="45.04082" lon="6.49658">
        <ele>2780</ele>
        <time>2020-01-23T11:25:52Z</time>
      </trkpt>
      <trkpt lat="45.04078" lon="6.49665">
        <ele>2821</ele>
        <time>2020-01-23T11:26:00Z</time>
      </trkpt>
      <trkpt lat="45.04073" lon="6.49666">
        <ele>2830</ele>
        <time>2020-01-23T11:26:18Z</time>
      </trkpt>
      <trkpt lat="45.04069" lon="6.49678">
        <ele>2833</ele>
        <time>2020-01-23T11:26:42Z</time>
      </trkpt>
      <trkpt lat="45.04064" lon="6.4968">
        <ele>2833</ele>
        <time>2020-01-23T11:26:54Z</time>
      </trkpt>
      <trkpt lat="45.04066" lon="6.49685">
        <ele>2833</ele>
        <time>2020-01-23T11:27:26Z</time>
      </trkpt>
      <trkpt lat="45.04071" lon="6.49685">
        <ele>2832</ele>
        <time>2020-01-23T11:27:33Z</time>
      </trkpt>
      <trkpt lat="45.04074" lon="6.49688">
        <ele>2831</ele>
        <time>2020-01-23T11:27:47Z</time>
      </trkpt>
      <trkpt lat="45.04075" lon="6.49683">
        <ele>2831</ele>
        <time>2020-01-23T11:28:07Z</time>
      </trkpt>
      <trkpt lat="45.04078" lon="6.49685">
        <ele>2832</ele>
        <time>2020-01-23T11:28:44Z</time>
      </trkpt>
      <trkpt lat="45.04078" lon="6.49681">
        <ele>2838</ele>
        <time>2020-01-23T11:29:25Z</time>
      </trkpt>
      <trkpt lat="45.04079" lon="6.49681">
        <ele>2838</ele>
        <time>2020-01-23T11:32:38Z</time>
      </trkpt>
      <trkpt lat="45.04075" lon="6.49682">
        <ele>2837</ele>
        <time>2020-01-23T11:33:15Z</time>
      </trkpt>
      <trkpt lat="45.04074" lon="6.49687">
        <ele>2836</ele>
        <time>2020-01-23T11:34:15Z</time>
      </trkpt>
      <trkpt lat="45.04071" lon="6.49684">
        <ele>2836</ele>
        <time>2020-01-23T11:34:41Z</time>
      </trkpt>
      <trkpt lat="45.04072" lon="6.49687">
        <ele>2839</ele>
        <time>2020-01-23T11:35:17Z</time>
      </trkpt>
      <trkpt lat="45.04086" lon="6.49685">
        <ele>2843</ele>
        <time>2020-01-23T11:35:24Z</time>
      </trkpt>
      <trkpt lat="45.04083" lon="6.4969">
        <ele>2849</ele>
        <time>2020-01-23T11:35:53Z</time>
      </trkpt>
      <trkpt lat="45.04099" lon="6.49689">
        <ele>2849</ele>
        <time>2020-01-23T11:36:01Z</time>
      </trkpt>
      <trkpt lat="45.04109" lon="6.49679">
        <ele>2831</ele>
        <time>2020-01-23T11:36:03Z</time>
      </trkpt>
      <trkpt lat="45.04105" lon="6.49685">
        <ele>2817</ele>
        <time>2020-01-23T11:36:18Z</time>
      </trkpt>
      <trkpt lat="45.04101" lon="6.49689">
        <ele>2818</ele>
        <time>2020-01-23T11:36:23Z</time>
      </trkpt>
      <trkpt lat="45.04099" lon="6.49694">
        <ele>2820</ele>
        <time>2020-01-23T11:36:40Z</time>
      </trkpt>
      <trkpt lat="45.04096" lon="6.49698">
        <ele>2823</ele>
        <time>2020-01-23T11:37:02Z</time>
      </trkpt>
      <trkpt lat="45.04096" lon="6.49704">
        <ele>2830</ele>
        <time>2020-01-23T11:37:16Z</time>
      </trkpt>
      <trkpt lat="45.04084" lon="6.4971">
        <ele>2831</ele>
        <time>2020-01-23T11:37:28Z</time>
      </trkpt>
      <trkpt lat="45.04083" lon="6.49705">
        <ele>2866</ele>
        <time>2020-01-23T11:37:44Z</time>
      </trkpt>
      <trkpt lat="45.04089" lon="6.49706">
        <ele>2865</ele>
        <time>2020-01-23T11:37:50Z</time>
      </trkpt>
      <trkpt lat="45.04095" lon="6.49712">
        <ele>2862</ele>
        <time>2020-01-23T11:38:14Z</time>
      </trkpt>
      <trkpt lat="45.04099" lon="6.49716">
        <ele>2867</ele>
        <time>2020-01-23T11:38:53Z</time>
      </trkpt>
      <trkpt lat="45.04088" lon="6.49726">
        <ele>2867</ele>
        <time>2020-01-23T11:39:08Z</time>
      </trkpt>
      <trkpt lat="45.04092" lon="6.49722">
        <ele>2877</ele>
        <time>2020-01-23T11:39:17Z</time>
      </trkpt>
      <trkpt lat="45.04097" lon="6.49719">
        <ele>2877</ele>
        <time>2020-01-23T11:39:20Z</time>
      </trkpt>
      <trkpt lat="45.04102" lon="6.49716">
        <ele>2872</ele>
        <time>2020-01-23T11:39:30Z</time>
      </trkpt>
      <trkpt lat="45.04105" lon="6.49721">
        <ele>2871</ele>
        <time>2020-01-23T11:39:55Z</time>
      </trkpt>
      <trkpt lat="45.04108" lon="6.49725">
        <ele>2871</ele>
        <time>2020-01-23T11:40:19Z</time>
      </trkpt>
      <trkpt lat="45.04111" lon="6.49718">
        <ele>2869</ele>
        <time>2020-01-23T11:41:04Z</time>
      </trkpt>
      <trkpt lat="45.04117" lon="6.49721">
        <ele>2869</ele>
        <time>2020-01-23T11:41:08Z</time>
      </trkpt>
      <trkpt lat="45.04103" lon="6.49711">
        <ele>2870</ele>
        <time>2020-01-23T11:41:34Z</time>
      </trkpt>
      <trkpt lat="45.04105" lon="6.49727">
        <ele>2893</ele>
        <time>2020-01-23T11:41:42Z</time>
      </trkpt>
      <trkpt lat="45.04111" lon="6.4973">
        <ele>2895</ele>
        <time>2020-01-23T11:41:46Z</time>
      </trkpt>
      <trkpt lat="45.04117" lon="6.49739">
        <ele>2879</ele>
        <time>2020-01-23T11:42:00Z</time>
      </trkpt>
      <trkpt lat="45.04121" lon="6.49738">
        <ele>2875</ele>
        <time>2020-01-23T11:42:34Z</time>
      </trkpt>
      <trkpt lat="45.04123" lon="6.49743">
        <ele>2877</ele>
        <time>2020-01-23T11:43:20Z</time>
      </trkpt>
      <trkpt lat="45.04127" lon="6.49749">
        <ele>2878</ele>
        <time>2020-01-23T11:44:20Z</time>
      </trkpt>
      <trkpt lat="45.04129" lon="6.49753">
        <ele>2880</ele>
        <time>2020-01-23T11:44:30Z</time>
      </trkpt>
      <trkpt lat="45.0413" lon="6.49759">
        <ele>2889</ele>
        <time>2020-01-23T11:45:20Z</time>
      </trkpt>
      <trkpt lat="45.04134" lon="6.49764">
        <ele>2890</ele>
        <time>2020-01-23T11:45:49Z</time>
      </trkpt>
      <trkpt lat="45.04138" lon="6.4976">
        <ele>2892</ele>
        <time>2020-01-23T11:46:17Z</time>
      </trkpt>
      <trkpt lat="45.04143" lon="6.49756">
        <ele>2894</ele>
        <time>2020-01-23T11:46:33Z</time>
      </trkpt>
      <trkpt lat="45.04146" lon="6.4976">
        <ele>2896</ele>
        <time>2020-01-23T11:46:55Z</time>
      </trkpt>
      <trkpt lat="45.04146" lon="6.49763">
        <ele>2901</ele>
        <time>2020-01-23T11:47:23Z</time>
      </trkpt>
      <trkpt lat="45.04145" lon="6.49769">
        <ele>2915</ele>
        <time>2020-01-23T11:47:55Z</time>
      </trkpt>
      <trkpt lat="45.04148" lon="6.4977">
        <ele>2914</ele>
        <time>2020-01-23T11:48:31Z</time>
      </trkpt>
      <trkpt lat="45.04152" lon="6.49772">
        <ele>2915</ele>
        <time>2020-01-23T11:48:54Z</time>
      </trkpt>
      <trkpt lat="45.04157" lon="6.4977">
        <ele>2919</ele>
        <time>2020-01-23T11:50:25Z</time>
      </trkpt>
      <trkpt lat="45.04159" lon="6.49772">
        <ele>2928</ele>
        <time>2020-01-23T11:51:38Z</time>
      </trkpt>
      <trkpt lat="45.04155" lon="6.49776">
        <ele>2928</ele>
        <time>2020-01-23T11:51:47Z</time>
      </trkpt>
      <trkpt lat="45.04156" lon="6.49782">
        <ele>2928</ele>
        <time>2020-01-23T11:52:22Z</time>
      </trkpt>
      <trkpt lat="45.04159" lon="6.49786">
        <ele>2927</ele>
        <time>2020-01-23T11:52:25Z</time>
      </trkpt>
      <trkpt lat="45.04159" lon="6.49788">
        <ele>2929</ele>
        <time>2020-01-23T11:53:19Z</time>
      </trkpt>
      <trkpt lat="45.04156" lon="6.49793">
        <ele>2928</ele>
        <time>2020-01-23T11:53:38Z</time>
      </trkpt>
      <trkpt lat="45.04159" lon="6.49797">
        <ele>2936</ele>
        <time>2020-01-23T11:54:14Z</time>
      </trkpt>
      <trkpt lat="45.04162" lon="6.49802">
        <ele>2940</ele>
        <time>2020-01-23T11:54:43Z</time>
      </trkpt>
      <trkpt lat="45.04166" lon="6.49801">
        <ele>2941</ele>
        <time>2020-01-23T11:55:00Z</time>
      </trkpt>
      <trkpt lat="45.04167" lon="6.49809">
        <ele>2945</ele>
        <time>2020-01-23T11:55:32Z</time>
      </trkpt>
      <trkpt lat="45.04167" lon="6.49813">
        <ele>2953</ele>
        <time>2020-01-23T11:56:21Z</time>
      </trkpt>
      <trkpt lat="45.04165" lon="6.49819">
        <ele>2964</ele>
        <time>2020-01-23T11:56:42Z</time>
      </trkpt>
      <trkpt lat="45.04169" lon="6.49826">
        <ele>2961</ele>
        <time>2020-01-23T11:57:16Z</time>
      </trkpt>
      <trkpt lat="45.04174" lon="6.49825">
        <ele>2959</ele>
        <time>2020-01-23T11:57:34Z</time>
      </trkpt>
      <trkpt lat="45.04175" lon="6.49827">
        <ele>2961</ele>
        <time>2020-01-23T11:58:46Z</time>
      </trkpt>
      <trkpt lat="45.04173" lon="6.4983">
        <ele>2955</ele>
        <time>2020-01-23T12:00:46Z</time>
      </trkpt>
      <trkpt lat="45.04173" lon="6.49834">
        <ele>2955</ele>
        <time>2020-01-23T12:01:01Z</time>
      </trkpt>
      <trkpt lat="45.04178" lon="6.4983">
        <ele>2956</ele>
        <time>2020-01-23T12:01:41Z</time>
      </trkpt>
      <trkpt lat="45.04179" lon="6.49836">
        <ele>2963</ele>
        <time>2020-01-23T12:02:47Z</time>
      </trkpt>
      <trkpt lat="45.04183" lon="6.4984">
        <ele>2967</ele>
        <time>2020-01-23T12:03:15Z</time>
      </trkpt>
      <trkpt lat="45.04182" lon="6.49847">
        <ele>2969</ele>
        <time>2020-01-23T12:03:39Z</time>
      </trkpt>
    </trkseg>
  </trk>
</gpx>